<?xml version="1.0" encoding="UTF-8" ?>
<gpx version="1.1" xmlns:xsi="http://www.w3.org/2001/XMLSchema-instance" 
    xmlns="http://www.topografix.com/GPX/1/1" 
    xsi:schemaLocation="http://www.topografix.com/GPX/1/1 http://www.topografix.com/GPX/1/1/gpx.xsd" 
    creator="Openrunner - https://www.openrunner.com" >	<trk>
						<name>15780270-GR7 Villechenève à limite Loire</name>
						<trkseg>
					<trkpt lat="45.835960" lon="4.397160">
						<ele>838</ele>
						<time>2022-11-01T12:51:38Z</time>
					</trkpt>
					<trkpt lat="45.835270" lon="4.396590">
						<ele>831</ele>
						<time>2022-11-01T12:53:24Z</time>
					</trkpt>
					<trkpt lat="45.835170" lon="4.396470">
						<ele>830</ele>
						<time>2022-11-01T12:53:42Z</time>
					</trkpt>
					<trkpt lat="45.834800" lon="4.396190">
						<ele>824</ele>
						<time>2022-11-01T12:54:37Z</time>
					</trkpt>
					<trkpt lat="45.834680" lon="4.396150">
						<ele>822</ele>
						<time>2022-11-01T12:54:54Z</time>
					</trkpt>
					<trkpt lat="45.834080" lon="4.396170">
						<ele>814</ele>
						<time>2022-11-01T12:56:14Z</time>
					</trkpt>
					<trkpt lat="45.833890" lon="4.395900">
						<ele>819</ele>
						<time>2022-11-01T12:56:50Z</time>
					</trkpt>
					<trkpt lat="45.833800" lon="4.395850">
						<ele>821</ele>
						<time>2022-11-01T12:57:03Z</time>
					</trkpt>
					<trkpt lat="45.833700" lon="4.395870">
						<ele>823</ele>
						<time>2022-11-01T12:57:16Z</time>
					</trkpt>
					<trkpt lat="45.833560" lon="4.396060">
						<ele>824</ele>
						<time>2022-11-01T12:57:42Z</time>
					</trkpt>
					<trkpt lat="45.833270" lon="4.396790">
						<ele>822</ele>
						<time>2022-11-01T12:59:00Z</time>
					</trkpt>
					<trkpt lat="45.832960" lon="4.397300">
						<ele>820</ele>
						<time>2022-11-01T13:00:03Z</time>
					</trkpt>
					<trkpt lat="45.832150" lon="4.398150">
						<ele>821</ele>
						<time>2022-11-01T13:02:17Z</time>
					</trkpt>
					<trkpt lat="45.832070" lon="4.398320">
						<ele>819</ele>
						<time>2022-11-01T13:02:36Z</time>
					</trkpt>
					<trkpt lat="45.831980" lon="4.398620">
						<ele>814</ele>
						<time>2022-11-01T13:03:06Z</time>
					</trkpt>
					<trkpt lat="45.831780" lon="4.398950">
						<ele>810</ele>
						<time>2022-11-01T13:03:47Z</time>
					</trkpt>
					<trkpt lat="45.831280" lon="4.399300">
						<ele>816</ele>
						<time>2022-11-01T13:05:01Z</time>
					</trkpt>
					<trkpt lat="45.831100" lon="4.399540">
						<ele>817</ele>
						<time>2022-11-01T13:05:34Z</time>
					</trkpt>
					<trkpt lat="45.831010" lon="4.399690">
						<ele>818</ele>
						<time>2022-11-01T13:05:52Z</time>
					</trkpt>
					<trkpt lat="45.830640" lon="4.400660">
						<ele>813</ele>
						<time>2022-11-01T13:07:35Z</time>
					</trkpt>
					<trkpt lat="45.830450" lon="4.400980">
						<ele>814</ele>
						<time>2022-11-01T13:08:14Z</time>
					</trkpt>
					<trkpt lat="45.830290" lon="4.401190">
						<ele>815</ele>
						<time>2022-11-01T13:08:43Z</time>
					</trkpt>
					<trkpt lat="45.829910" lon="4.401610">
						<ele>816</ele>
						<time>2022-11-01T13:09:47Z</time>
					</trkpt>
					<trkpt lat="45.829760" lon="4.401740">
						<ele>816</ele>
						<time>2022-11-01T13:10:10Z</time>
					</trkpt>
					<trkpt lat="45.829620" lon="4.401800">
						<ele>816</ele>
						<time>2022-11-01T13:10:30Z</time>
					</trkpt>
					<trkpt lat="45.829420" lon="4.401800">
						<ele>818</ele>
						<time>2022-11-01T13:10:57Z</time>
					</trkpt>
					<trkpt lat="45.829200" lon="4.402040">
						<ele>816</ele>
						<time>2022-11-01T13:11:34Z</time>
					</trkpt>
					<trkpt lat="45.828890" lon="4.402450">
						<ele>810</ele>
						<time>2022-11-01T13:12:30Z</time>
					</trkpt>
					<trkpt lat="45.828750" lon="4.402580">
						<ele>808</ele>
						<time>2022-11-01T13:12:52Z</time>
					</trkpt>
					<trkpt lat="45.828630" lon="4.402650">
						<ele>807</ele>
						<time>2022-11-01T13:13:09Z</time>
					</trkpt>
					<trkpt lat="45.828360" lon="4.402700">
						<ele>806</ele>
						<time>2022-11-01T13:13:46Z</time>
					</trkpt>
					<trkpt lat="45.828070" lon="4.402620">
						<ele>804</ele>
						<time>2022-11-01T13:14:25Z</time>
					</trkpt>
					<trkpt lat="45.827520" lon="4.402280">
						<ele>804</ele>
						<time>2022-11-01T13:15:45Z</time>
					</trkpt>
					<trkpt lat="45.827240" lon="4.402190">
						<ele>803</ele>
						<time>2022-11-01T13:16:23Z</time>
					</trkpt>
					<trkpt lat="45.826110" lon="4.401520">
						<ele>804</ele>
						<time>2022-11-01T13:19:06Z</time>
					</trkpt>
					<trkpt lat="45.825870" lon="4.401350">
						<ele>804</ele>
						<time>2022-11-01T13:19:42Z</time>
					</trkpt>
					<trkpt lat="45.825590" lon="4.401060">
						<ele>803</ele>
						<time>2022-11-01T13:20:28Z</time>
					</trkpt>
					<trkpt lat="45.825070" lon="4.400350">
						<ele>804</ele>
						<time>2022-11-01T13:22:04Z</time>
					</trkpt>
					<trkpt lat="45.824920" lon="4.400230">
						<ele>803</ele>
						<time>2022-11-01T13:22:27Z</time>
					</trkpt>
					<trkpt lat="45.824400" lon="4.399930">
						<ele>798</ele>
						<time>2022-11-01T13:23:42Z</time>
					</trkpt>
					<trkpt lat="45.822640" lon="4.398670">
						<ele>790</ele>
						<time>2022-11-01T13:28:04Z</time>
					</trkpt>
					<trkpt lat="45.822480" lon="4.398620">
						<ele>788</ele>
						<time>2022-11-01T13:28:26Z</time>
					</trkpt>
					<trkpt lat="45.822080" lon="4.398690">
						<ele>776</ele>
						<time>2022-11-01T13:29:20Z</time>
					</trkpt>
					<trkpt lat="45.821840" lon="4.398670">
						<ele>771</ele>
						<time>2022-11-01T13:29:52Z</time>
					</trkpt>
					<trkpt lat="45.821710" lon="4.398760">
						<ele>767</ele>
						<time>2022-11-01T13:30:11Z</time>
					</trkpt>
					<trkpt lat="45.821530" lon="4.398840">
						<ele>765</ele>
						<time>2022-11-01T13:30:36Z</time>
					</trkpt>
					<trkpt lat="45.821360" lon="4.398820">
						<ele>765</ele>
						<time>2022-11-01T13:30:59Z</time>
					</trkpt>
					<trkpt lat="45.821300" lon="4.398790">
						<ele>765</ele>
						<time>2022-11-01T13:31:08Z</time>
					</trkpt>
					<trkpt lat="45.821240" lon="4.398940">
						<ele>763</ele>
						<time>2022-11-01T13:31:24Z</time>
					</trkpt>
					<trkpt lat="45.821070" lon="4.399160">
						<ele>762</ele>
						<time>2022-11-01T13:31:54Z</time>
					</trkpt>
					<trkpt lat="45.820720" lon="4.399520">
						<ele>757</ele>
						<time>2022-11-01T13:32:52Z</time>
					</trkpt>
					<trkpt lat="45.820170" lon="4.399980">
						<ele>754</ele>
						<time>2022-11-01T13:34:17Z</time>
					</trkpt>
					<trkpt lat="45.819880" lon="4.400300">
						<ele>752</ele>
						<time>2022-11-01T13:35:05Z</time>
					</trkpt>
					<trkpt lat="45.819420" lon="4.401010">
						<ele>745</ele>
						<time>2022-11-01T13:36:36Z</time>
					</trkpt>
					<trkpt lat="45.818940" lon="4.401810">
						<ele>740</ele>
						<time>2022-11-01T13:38:14Z</time>
					</trkpt>
					<trkpt lat="45.818890" lon="4.401820">
						<ele>739</ele>
						<time>2022-11-01T13:38:20Z</time>
					</trkpt>
					<trkpt lat="45.818830" lon="4.401990">
						<ele>738</ele>
						<time>2022-11-01T13:38:38Z</time>
					</trkpt>
					<trkpt lat="45.817390" lon="4.404400">
						<ele>727</ele>
						<time>2022-11-01T13:43:33Z</time>
					</trkpt>
					<trkpt lat="45.817160" lon="4.404730">
						<ele>726</ele>
						<time>2022-11-01T13:44:17Z</time>
					</trkpt>
					<trkpt lat="45.817120" lon="4.404840">
						<ele>725</ele>
						<time>2022-11-01T13:44:28Z</time>
					</trkpt>
					<trkpt lat="45.816680" lon="4.404830">
						<ele>724</ele>
						<time>2022-11-01T13:45:27Z</time>
					</trkpt>
					<trkpt lat="45.816590" lon="4.404960">
						<ele>725</ele>
						<time>2022-11-01T13:45:44Z</time>
					</trkpt>
					<trkpt lat="45.816090" lon="4.405370">
						<ele>728</ele>
						<time>2022-11-01T13:47:01Z</time>
					</trkpt>
					<trkpt lat="45.815690" lon="4.405770">
						<ele>735</ele>
						<time>2022-11-01T13:48:06Z</time>
					</trkpt>
					<trkpt lat="45.815490" lon="4.406020">
						<ele>738</ele>
						<time>2022-11-01T13:48:41Z</time>
					</trkpt>
					<trkpt lat="45.814980" lon="4.406900">
						<ele>749</ele>
						<time>2022-11-01T13:50:28Z</time>
					</trkpt>
					<trkpt lat="45.814700" lon="4.407180">
						<ele>753</ele>
						<time>2022-11-01T13:51:13Z</time>
					</trkpt>
					<trkpt lat="45.814390" lon="4.407580">
						<ele>755</ele>
						<time>2022-11-01T13:52:09Z</time>
					</trkpt>
					<trkpt lat="45.814200" lon="4.407710">
						<ele>756</ele>
						<time>2022-11-01T13:52:37Z</time>
					</trkpt>
					<trkpt lat="45.813890" lon="4.407800">
						<ele>753</ele>
						<time>2022-11-01T13:53:19Z</time>
					</trkpt>
					<trkpt lat="45.813740" lon="4.407930">
						<ele>752</ele>
						<time>2022-11-01T13:53:43Z</time>
					</trkpt>
					<trkpt lat="45.813260" lon="4.408660">
						<ele>750</ele>
						<time>2022-11-01T13:55:16Z</time>
					</trkpt>
					<trkpt lat="45.813200" lon="4.408720">
						<ele>750</ele>
						<time>2022-11-01T13:55:26Z</time>
					</trkpt>
					<trkpt lat="45.812790" lon="4.408770">
						<ele>747</ele>
						<time>2022-11-01T13:56:21Z</time>
					</trkpt>
					<trkpt lat="45.812700" lon="4.408810">
						<ele>746</ele>
						<time>2022-11-01T13:56:33Z</time>
					</trkpt>
					<trkpt lat="45.812350" lon="4.409080">
						<ele>746</ele>
						<time>2022-11-01T13:57:26Z</time>
					</trkpt>
					<trkpt lat="45.812190" lon="4.409230">
						<ele>745</ele>
						<time>2022-11-01T13:57:52Z</time>
					</trkpt>
					<trkpt lat="45.811650" lon="4.409870">
						<ele>745</ele>
						<time>2022-11-01T13:59:25Z</time>
					</trkpt>
					<trkpt lat="45.811490" lon="4.410030">
						<ele>744</ele>
						<time>2022-11-01T13:59:51Z</time>
					</trkpt>
					<trkpt lat="45.811200" lon="4.410240">
						<ele>742</ele>
						<time>2022-11-01T14:00:35Z</time>
					</trkpt>
					<trkpt lat="45.810920" lon="4.410530">
						<ele>740</ele>
						<time>2022-11-01T14:01:21Z</time>
					</trkpt>
					<trkpt lat="45.810670" lon="4.410730">
						<ele>739</ele>
						<time>2022-11-01T14:01:59Z</time>
					</trkpt>
					<trkpt lat="45.810590" lon="4.410780">
						<ele>739</ele>
						<time>2022-11-01T14:02:11Z</time>
					</trkpt>
					<trkpt lat="45.810520" lon="4.410790">
						<ele>739</ele>
						<time>2022-11-01T14:02:20Z</time>
					</trkpt>
					<trkpt lat="45.810440" lon="4.410610">
						<ele>737</ele>
						<time>2022-11-01T14:02:40Z</time>
					</trkpt>
					<trkpt lat="45.810330" lon="4.410440">
						<ele>736</ele>
						<time>2022-11-01T14:03:01Z</time>
					</trkpt>
					<trkpt lat="45.810000" lon="4.410840">
						<ele>735</ele>
						<time>2022-11-01T14:03:59Z</time>
					</trkpt>
					<trkpt lat="45.809800" lon="4.411230">
						<ele>735</ele>
						<time>2022-11-01T14:04:44Z</time>
					</trkpt>
					<trkpt lat="45.809510" lon="4.412140">
						<ele>733</ele>
						<time>2022-11-01T14:06:17Z</time>
					</trkpt>
					<trkpt lat="45.809030" lon="4.413820">
						<ele>729</ele>
						<time>2022-11-01T14:09:06Z</time>
					</trkpt>
					<trkpt lat="45.809020" lon="4.414180">
						<ele>728</ele>
						<time>2022-11-01T14:09:40Z</time>
					</trkpt>
					<trkpt lat="45.808640" lon="4.414470">
						<ele>726</ele>
						<time>2022-11-01T14:10:37Z</time>
					</trkpt>
					<trkpt lat="45.807660" lon="4.415530">
						<ele>726</ele>
						<time>2022-11-01T14:13:21Z</time>
					</trkpt>
					<trkpt lat="45.807030" lon="4.416120">
						<ele>725</ele>
						<time>2022-11-01T14:15:01Z</time>
					</trkpt>
					<trkpt lat="45.806930" lon="4.416170">
						<ele>725</ele>
						<time>2022-11-01T14:15:15Z</time>
					</trkpt>
					<trkpt lat="45.806410" lon="4.417180">
						<ele>719</ele>
						<time>2022-11-01T14:17:12Z</time>
					</trkpt>
					<trkpt lat="45.806380" lon="4.417160">
						<ele>719</ele>
						<time>2022-11-01T14:17:17Z</time>
					</trkpt>
					<trkpt lat="45.806210" lon="4.417450">
						<ele>716</ele>
						<time>2022-11-01T14:17:52Z</time>
					</trkpt>
					<trkpt lat="45.805970" lon="4.417790">
						<ele>712</ele>
						<time>2022-11-01T14:18:37Z</time>
					</trkpt>
					<trkpt lat="45.805160" lon="4.418630">
						<ele>702</ele>
						<time>2022-11-01T14:20:50Z</time>
					</trkpt>
					<trkpt lat="45.804790" lon="4.419070">
						<ele>700</ele>
						<time>2022-11-01T14:21:54Z</time>
					</trkpt>
					<trkpt lat="45.804570" lon="4.419400">
						<ele>697</ele>
						<time>2022-11-01T14:22:37Z</time>
					</trkpt>
					<trkpt lat="45.804280" lon="4.419770">
						<ele>695</ele>
						<time>2022-11-01T14:23:29Z</time>
					</trkpt>
					<trkpt lat="45.803990" lon="4.420180">
						<ele>690</ele>
						<time>2022-11-01T14:24:23Z</time>
					</trkpt>
					<trkpt lat="45.803450" lon="4.421040">
						<ele>677</ele>
						<time>2022-11-01T14:26:11Z</time>
					</trkpt>
					<trkpt lat="45.803070" lon="4.421520">
						<ele>670</ele>
						<time>2022-11-01T14:27:18Z</time>
					</trkpt>
					<trkpt lat="45.803040" lon="4.421600">
						<ele>670</ele>
						<time>2022-11-01T14:27:27Z</time>
					</trkpt>
					<trkpt lat="45.803000" lon="4.422010">
						<ele>671</ele>
						<time>2022-11-01T14:28:05Z</time>
					</trkpt>
					<trkpt lat="45.802780" lon="4.422430">
						<ele>673</ele>
						<time>2022-11-01T14:28:54Z</time>
					</trkpt>
					<trkpt lat="45.802720" lon="4.422500">
						<ele>673</ele>
						<time>2022-11-01T14:29:04Z</time>
					</trkpt>
					<trkpt lat="45.802520" lon="4.422560">
						<ele>673</ele>
						<time>2022-11-01T14:29:32Z</time>
					</trkpt>
					<trkpt lat="45.802530" lon="4.422720">
						<ele>674</ele>
						<time>2022-11-01T14:29:47Z</time>
					</trkpt>
					<trkpt lat="45.802660" lon="4.422850">
						<ele>676</ele>
						<time>2022-11-01T14:30:08Z</time>
					</trkpt>
					<trkpt lat="45.802690" lon="4.422910">
						<ele>676</ele>
						<time>2022-11-01T14:30:15Z</time>
					</trkpt>
					<trkpt lat="45.802740" lon="4.423180">
						<ele>679</ele>
						<time>2022-11-01T14:30:41Z</time>
					</trkpt>
					<trkpt lat="45.802800" lon="4.423260">
						<ele>680</ele>
						<time>2022-11-01T14:30:52Z</time>
					</trkpt>
					<trkpt lat="45.802940" lon="4.423300">
						<ele>681</ele>
						<time>2022-11-01T14:31:11Z</time>
					</trkpt>
					<trkpt lat="45.802980" lon="4.423390">
						<ele>682</ele>
						<time>2022-11-01T14:31:21Z</time>
					</trkpt>
					<trkpt lat="45.803180" lon="4.423960">
						<ele>689</ele>
						<time>2022-11-01T14:32:20Z</time>
					</trkpt>
					<trkpt lat="45.803310" lon="4.424440">
						<ele>695</ele>
						<time>2022-11-01T14:33:08Z</time>
					</trkpt>
					<trkpt lat="45.803640" lon="4.425350">
						<ele>705</ele>
						<time>2022-11-01T14:34:43Z</time>
					</trkpt>
					<trkpt lat="45.803660" lon="4.425670">
						<ele>708</ele>
						<time>2022-11-01T14:35:13Z</time>
					</trkpt>
					<trkpt lat="45.803530" lon="4.425600">
						<ele>707</ele>
						<time>2022-11-01T14:35:32Z</time>
					</trkpt>
					<trkpt lat="45.803290" lon="4.425580">
						<ele>707</ele>
						<time>2022-11-01T14:36:04Z</time>
					</trkpt>
					<trkpt lat="45.803120" lon="4.425620">
						<ele>706</ele>
						<time>2022-11-01T14:36:27Z</time>
					</trkpt>
					<trkpt lat="45.802900" lon="4.425710">
						<ele>706</ele>
						<time>2022-11-01T14:36:57Z</time>
					</trkpt>
					<trkpt lat="45.802570" lon="4.425880">
						<ele>706</ele>
						<time>2022-11-01T14:37:44Z</time>
					</trkpt>
					<trkpt lat="45.802380" lon="4.426050">
						<ele>705</ele>
						<time>2022-11-01T14:38:14Z</time>
					</trkpt>
					<trkpt lat="45.802060" lon="4.426510">
						<ele>706</ele>
						<time>2022-11-01T14:39:14Z</time>
					</trkpt>
					<trkpt lat="45.801250" lon="4.427140">
						<ele>706</ele>
						<time>2022-11-01T14:41:17Z</time>
					</trkpt>
					<trkpt lat="45.800900" lon="4.427330">
						<ele>707</ele>
						<time>2022-11-01T14:42:07Z</time>
					</trkpt>
					<trkpt lat="45.800810" lon="4.427330">
						<ele>707</ele>
						<time>2022-11-01T14:42:19Z</time>
					</trkpt>
					<trkpt lat="45.800740" lon="4.427300">
						<ele>707</ele>
						<time>2022-11-01T14:42:29Z</time>
					</trkpt>
					<trkpt lat="45.800610" lon="4.427350">
						<ele>708</ele>
						<time>2022-11-01T14:42:47Z</time>
					</trkpt>
					<trkpt lat="45.799880" lon="4.427450">
						<ele>713</ele>
						<time>2022-11-01T14:44:25Z</time>
					</trkpt>
					<trkpt lat="45.799550" lon="4.427410">
						<ele>716</ele>
						<time>2022-11-01T14:45:09Z</time>
					</trkpt>
					<trkpt lat="45.799060" lon="4.427270">
						<ele>718</ele>
						<time>2022-11-01T14:46:16Z</time>
					</trkpt>
					<trkpt lat="45.799030" lon="4.427380">
						<ele>719</ele>
						<time>2022-11-01T14:46:27Z</time>
					</trkpt>
					<trkpt lat="45.798880" lon="4.427660">
						<ele>720</ele>
						<time>2022-11-01T14:47:00Z</time>
					</trkpt>
					<trkpt lat="45.798720" lon="4.428050">
						<ele>722</ele>
						<time>2022-11-01T14:47:42Z</time>
					</trkpt>
					<trkpt lat="45.799470" lon="4.428620">
						<ele>729</ele>
						<time>2022-11-01T14:49:35Z</time>
					</trkpt>
					<trkpt lat="45.799540" lon="4.428700">
						<ele>729</ele>
						<time>2022-11-01T14:49:47Z</time>
					</trkpt>
					<trkpt lat="45.799560" lon="4.428750">
						<ele>730</ele>
						<time>2022-11-01T14:49:52Z</time>
					</trkpt>
					<trkpt lat="45.799550" lon="4.428810">
						<ele>730</ele>
						<time>2022-11-01T14:49:58Z</time>
					</trkpt>
					<trkpt lat="45.799230" lon="4.429510">
						<ele>734</ele>
						<time>2022-11-01T14:51:16Z</time>
					</trkpt>
					<trkpt lat="45.798960" lon="4.430460">
						<ele>741</ele>
						<time>2022-11-01T14:52:51Z</time>
					</trkpt>
					<trkpt lat="45.798870" lon="4.430700">
						<ele>743</ele>
						<time>2022-11-01T14:53:17Z</time>
					</trkpt>
					<trkpt lat="45.798440" lon="4.431440">
						<ele>748</ele>
						<time>2022-11-01T14:54:46Z</time>
					</trkpt>
					<trkpt lat="45.797820" lon="4.432010">
						<ele>746</ele>
						<time>2022-11-01T14:56:25Z</time>
					</trkpt>
					<trkpt lat="45.797630" lon="4.432340">
						<ele>747</ele>
						<time>2022-11-01T14:57:04Z</time>
					</trkpt>
					<trkpt lat="45.797590" lon="4.432460">
						<ele>747</ele>
						<time>2022-11-01T14:57:17Z</time>
					</trkpt>
					<trkpt lat="45.797570" lon="4.432660">
						<ele>748</ele>
						<time>2022-11-01T14:57:36Z</time>
					</trkpt>
					<trkpt lat="45.797620" lon="4.433320">
						<ele>750</ele>
						<time>2022-11-01T14:58:37Z</time>
					</trkpt>
					<trkpt lat="45.797570" lon="4.433780">
						<ele>748</ele>
						<time>2022-11-01T14:59:21Z</time>
					</trkpt>
					<trkpt lat="45.797260" lon="4.434410">
						<ele>748</ele>
						<time>2022-11-01T15:00:32Z</time>
					</trkpt>
					<trkpt lat="45.797200" lon="4.434470">
						<ele>748</ele>
						<time>2022-11-01T15:00:42Z</time>
					</trkpt>
					<trkpt lat="45.796340" lon="4.434520">
						<ele>749</ele>
						<time>2022-11-01T15:02:37Z</time>
					</trkpt>
					<trkpt lat="45.795980" lon="4.434460">
						<ele>748</ele>
						<time>2022-11-01T15:03:25Z</time>
					</trkpt>
					<trkpt lat="45.795780" lon="4.434390">
						<ele>747</ele>
						<time>2022-11-01T15:03:53Z</time>
					</trkpt>
					<trkpt lat="45.795730" lon="4.434440">
						<ele>747</ele>
						<time>2022-11-01T15:04:01Z</time>
					</trkpt>
					<trkpt lat="45.795710" lon="4.434590">
						<ele>747</ele>
						<time>2022-11-01T15:04:15Z</time>
					</trkpt>
					<trkpt lat="45.795410" lon="4.435790">
						<ele>750</ele>
						<time>2022-11-01T15:06:14Z</time>
					</trkpt>
					<trkpt lat="45.795280" lon="4.436190">
						<ele>751</ele>
						<time>2022-11-01T15:06:55Z</time>
					</trkpt>
					<trkpt lat="45.795050" lon="4.436560">
						<ele>750</ele>
						<time>2022-11-01T15:07:41Z</time>
					</trkpt>
					<trkpt lat="45.794780" lon="4.436820">
						<ele>749</ele>
						<time>2022-11-01T15:08:24Z</time>
					</trkpt>
					<trkpt lat="45.794680" lon="4.436960">
						<ele>750</ele>
						<time>2022-11-01T15:08:43Z</time>
					</trkpt>
					<trkpt lat="45.794410" lon="4.437480">
						<ele>754</ele>
						<time>2022-11-01T15:09:43Z</time>
					</trkpt>
					<trkpt lat="45.794300" lon="4.437580">
						<ele>754</ele>
						<time>2022-11-01T15:10:01Z</time>
					</trkpt>
					<trkpt lat="45.794170" lon="4.437590">
						<ele>754</ele>
						<time>2022-11-01T15:10:18Z</time>
					</trkpt>
					<trkpt lat="45.793610" lon="4.437570">
						<ele>751</ele>
						<time>2022-11-01T15:11:33Z</time>
					</trkpt>
					<trkpt lat="45.793300" lon="4.437520">
						<ele>750</ele>
						<time>2022-11-01T15:12:14Z</time>
					</trkpt>
					<trkpt lat="45.793290" lon="4.438200">
						<ele>748</ele>
						<time>2022-11-01T15:13:18Z</time>
					</trkpt>
					<trkpt lat="45.793510" lon="4.438500">
						<ele>746</ele>
						<time>2022-11-01T15:13:58Z</time>
					</trkpt>
					<trkpt lat="45.793660" lon="4.438780">
						<ele>743</ele>
						<time>2022-11-01T15:14:31Z</time>
					</trkpt>
					<trkpt lat="45.793720" lon="4.438990">
						<ele>741</ele>
						<time>2022-11-01T15:14:52Z</time>
					</trkpt>
					<trkpt lat="45.793730" lon="4.439110">
						<ele>739</ele>
						<time>2022-11-01T15:15:03Z</time>
					</trkpt>
					<trkpt lat="45.793660" lon="4.439660">
						<ele>732</ele>
						<time>2022-11-01T15:15:55Z</time>
					</trkpt>
					<trkpt lat="45.793600" lon="4.440480">
						<ele>726</ele>
						<time>2022-11-01T15:17:12Z</time>
					</trkpt>
					<trkpt lat="45.793440" lon="4.441670">
						<ele>727</ele>
						<time>2022-11-01T15:19:05Z</time>
					</trkpt>
					<trkpt lat="45.793300" lon="4.443000">
						<ele>725</ele>
						<time>2022-11-01T15:21:10Z</time>
					</trkpt>
					<trkpt lat="45.793280" lon="4.444290">
						<ele>723</ele>
						<time>2022-11-01T15:23:10Z</time>
					</trkpt>
					<trkpt lat="45.793330" lon="4.444610">
						<ele>724</ele>
						<time>2022-11-01T15:23:41Z</time>
					</trkpt>
					<trkpt lat="45.793410" lon="4.444820">
						<ele>723</ele>
						<time>2022-11-01T15:24:03Z</time>
					</trkpt>
					<trkpt lat="45.793130" lon="4.445360">
						<ele>728</ele>
						<time>2022-11-01T15:25:06Z</time>
					</trkpt>
					<trkpt lat="45.793610" lon="4.445610">
						<ele>725</ele>
						<time>2022-11-01T15:26:14Z</time>
					</trkpt>
					<trkpt lat="45.794070" lon="4.446140">
						<ele>722</ele>
						<time>2022-11-01T15:27:32Z</time>
					</trkpt>
					<trkpt lat="45.794120" lon="4.446170">
						<ele>722</ele>
						<time>2022-11-01T15:27:40Z</time>
					</trkpt>
					<trkpt lat="45.794350" lon="4.446770">
						<ele>721</ele>
						<time>2022-11-01T15:28:43Z</time>
					</trkpt>
					<trkpt lat="45.794390" lon="4.446930">
						<ele>720</ele>
						<time>2022-11-01T15:28:59Z</time>
					</trkpt>
					<trkpt lat="45.794420" lon="4.447290">
						<ele>718</ele>
						<time>2022-11-01T15:29:33Z</time>
					</trkpt>
					<trkpt lat="45.794410" lon="4.447640">
						<ele>715</ele>
						<time>2022-11-01T15:30:06Z</time>
					</trkpt>
					<trkpt lat="45.794060" lon="4.449050">
						<ele>706</ele>
						<time>2022-11-01T15:32:25Z</time>
					</trkpt>
					<trkpt lat="45.793900" lon="4.449850">
						<ele>708</ele>
						<time>2022-11-01T15:33:42Z</time>
					</trkpt>
					<trkpt lat="45.793730" lon="4.450180">
						<ele>705</ele>
						<time>2022-11-01T15:34:20Z</time>
					</trkpt>
					<trkpt lat="45.793610" lon="4.450500">
						<ele>704</ele>
						<time>2022-11-01T15:34:54Z</time>
					</trkpt>
					<trkpt lat="45.793590" lon="4.450880">
						<ele>704</ele>
						<time>2022-11-01T15:35:30Z</time>
					</trkpt>
					<trkpt lat="45.793470" lon="4.451640">
						<ele>703</ele>
						<time>2022-11-01T15:36:42Z</time>
					</trkpt>
					<trkpt lat="45.793530" lon="4.451760">
						<ele>703</ele>
						<time>2022-11-01T15:36:56Z</time>
					</trkpt>
					<trkpt lat="45.793830" lon="4.452000">
						<ele>701</ele>
						<time>2022-11-01T15:37:42Z</time>
					</trkpt>
					<trkpt lat="45.794670" lon="4.452450">
						<ele>694</ele>
						<time>2022-11-01T15:39:41Z</time>
					</trkpt>
					<trkpt lat="45.794870" lon="4.452660">
						<ele>691</ele>
						<time>2022-11-01T15:40:15Z</time>
					</trkpt>
					<trkpt lat="45.795030" lon="4.452960">
						<ele>686</ele>
						<time>2022-11-01T15:40:50Z</time>
					</trkpt>
					<trkpt lat="45.795120" lon="4.453240">
						<ele>680</ele>
						<time>2022-11-01T15:41:18Z</time>
					</trkpt>
					<trkpt lat="45.795140" lon="4.454110">
						<ele>674</ele>
						<time>2022-11-01T15:42:39Z</time>
					</trkpt>
					<trkpt lat="45.795040" lon="4.455120">
						<ele>664</ele>
						<time>2022-11-01T15:44:14Z</time>
					</trkpt>
					<trkpt lat="45.794980" lon="4.455330">
						<ele>662</ele>
						<time>2022-11-01T15:44:35Z</time>
					</trkpt>
					<trkpt lat="45.794720" lon="4.455860">
						<ele>654</ele>
						<time>2022-11-01T15:45:36Z</time>
					</trkpt>
					<trkpt lat="45.794580" lon="4.456260">
						<ele>650</ele>
						<time>2022-11-01T15:46:17Z</time>
					</trkpt>
					<trkpt lat="45.794290" lon="4.456830">
						<ele>644</ele>
						<time>2022-11-01T15:47:23Z</time>
					</trkpt>
					<trkpt lat="45.794180" lon="4.457170">
						<ele>642</ele>
						<time>2022-11-01T15:47:58Z</time>
					</trkpt>
					<trkpt lat="45.794100" lon="4.457330">
						<ele>641</ele>
						<time>2022-11-01T15:48:16Z</time>
					</trkpt>
					<trkpt lat="45.793780" lon="4.457800">
						<ele>640</ele>
						<time>2022-11-01T15:49:17Z</time>
					</trkpt>
					<trkpt lat="45.793550" lon="4.457950">
						<ele>640</ele>
						<time>2022-11-01T15:49:51Z</time>
					</trkpt>
					<trkpt lat="45.793330" lon="4.458610">
						<ele>640</ele>
						<time>2022-11-01T15:50:59Z</time>
					</trkpt>
					<trkpt lat="45.793310" lon="4.458920">
						<ele>641</ele>
						<time>2022-11-01T15:51:28Z</time>
					</trkpt>
					<trkpt lat="45.793210" lon="4.459410">
						<ele>643</ele>
						<time>2022-11-01T15:52:16Z</time>
					</trkpt>
					<trkpt lat="45.792900" lon="4.460160">
						<ele>644</ele>
						<time>2022-11-01T15:53:37Z</time>
					</trkpt>
					<trkpt lat="45.792750" lon="4.460710">
						<ele>646</ele>
						<time>2022-11-01T15:54:32Z</time>
					</trkpt>
					<trkpt lat="45.792670" lon="4.461240">
						<ele>647</ele>
						<time>2022-11-01T15:55:22Z</time>
					</trkpt>
					<trkpt lat="45.792680" lon="4.461480">
						<ele>647</ele>
						<time>2022-11-01T15:55:44Z</time>
					</trkpt>
					<trkpt lat="45.792720" lon="4.461730">
						<ele>648</ele>
						<time>2022-11-01T15:56:08Z</time>
					</trkpt>
					<trkpt lat="45.792980" lon="4.462750">
						<ele>649</ele>
						<time>2022-11-01T15:57:49Z</time>
					</trkpt>
					<trkpt lat="45.793050" lon="4.463220">
						<ele>649</ele>
						<time>2022-11-01T15:58:34Z</time>
					</trkpt>
					<trkpt lat="45.793040" lon="4.463420">
						<ele>650</ele>
						<time>2022-11-01T15:58:53Z</time>
					</trkpt>
					<trkpt lat="45.792950" lon="4.463850">
						<ele>650</ele>
						<time>2022-11-01T15:59:34Z</time>
					</trkpt>
					<trkpt lat="45.792900" lon="4.464430">
						<ele>653</ele>
						<time>2022-11-01T16:00:29Z</time>
					</trkpt>
					<trkpt lat="45.792800" lon="4.465140">
						<ele>658</ele>
						<time>2022-11-01T16:01:36Z</time>
					</trkpt>
					<trkpt lat="45.792800" lon="4.465340">
						<ele>659</ele>
						<time>2022-11-01T16:01:55Z</time>
					</trkpt>
					<trkpt lat="45.792370" lon="4.465700">
						<ele>660</ele>
						<time>2022-11-01T16:03:01Z</time>
					</trkpt>
					<trkpt lat="45.792560" lon="4.466390">
						<ele>661</ele>
						<time>2022-11-01T16:04:10Z</time>
					</trkpt>
					<trkpt lat="45.792150" lon="4.466550">
						<ele>662</ele>
						<time>2022-11-01T16:05:07Z</time>
					</trkpt>
					<trkpt lat="45.791420" lon="4.466790">
						<ele>667</ele>
						<time>2022-11-01T16:06:47Z</time>
					</trkpt>
					<trkpt lat="45.790990" lon="4.467320">
						<ele>668</ele>
						<time>2022-11-01T16:08:03Z</time>
					</trkpt>
					<trkpt lat="45.790930" lon="4.467170">
						<ele>670</ele>
						<time>2022-11-01T16:08:19Z</time>
					</trkpt>
					<trkpt lat="45.790830" lon="4.467040">
						<ele>672</ele>
						<time>2022-11-01T16:08:37Z</time>
					</trkpt>
					<trkpt lat="45.790580" lon="4.466930">
						<ele>671</ele>
						<time>2022-11-01T16:09:12Z</time>
					</trkpt>
					<trkpt lat="45.790440" lon="4.466690">
						<ele>671</ele>
						<time>2022-11-01T16:09:41Z</time>
					</trkpt>
					<trkpt lat="45.790390" lon="4.466760">
						<ele>670</ele>
						<time>2022-11-01T16:09:50Z</time>
					</trkpt>
					<trkpt lat="45.790050" lon="4.466420">
						<ele>667</ele>
						<time>2022-11-01T16:10:45Z</time>
					</trkpt>
					<trkpt lat="45.789970" lon="4.466550">
						<ele>667</ele>
						<time>2022-11-01T16:11:02Z</time>
					</trkpt>
					<trkpt lat="45.789890" lon="4.466910">
						<ele>665</ele>
						<time>2022-11-01T16:11:37Z</time>
					</trkpt>
					<trkpt lat="45.789910" lon="4.467260">
						<ele>663</ele>
						<time>2022-11-01T16:12:09Z</time>
					</trkpt>
					<trkpt lat="45.790080" lon="4.467690">
						<ele>662</ele>
						<time>2022-11-01T16:12:55Z</time>
					</trkpt>
					<trkpt lat="45.790090" lon="4.467980">
						<ele>659</ele>
						<time>2022-11-01T16:13:22Z</time>
					</trkpt>
					<trkpt lat="45.790060" lon="4.468090">
						<ele>658</ele>
						<time>2022-11-01T16:13:33Z</time>
					</trkpt>
					<trkpt lat="45.788550" lon="4.470340">
						<ele>646</ele>
						<time>2022-11-01T16:18:24Z</time>
					</trkpt>
					<trkpt lat="45.787960" lon="4.471370">
						<ele>638</ele>
						<time>2022-11-01T16:20:28Z</time>
					</trkpt>
					<trkpt lat="45.787690" lon="4.471660">
						<ele>637</ele>
						<time>2022-11-01T16:21:13Z</time>
					</trkpt>
					<trkpt lat="45.787480" lon="4.471770">
						<ele>636</ele>
						<time>2022-11-01T16:21:43Z</time>
					</trkpt>
					<trkpt lat="45.786450" lon="4.472030">
						<ele>630</ele>
						<time>2022-11-01T16:24:02Z</time>
					</trkpt>
					<trkpt lat="45.786370" lon="4.472060">
						<ele>629</ele>
						<time>2022-11-01T16:24:13Z</time>
					</trkpt>
					<trkpt lat="45.786250" lon="4.472150">
						<ele>628</ele>
						<time>2022-11-01T16:24:32Z</time>
					</trkpt>
					<trkpt lat="45.786200" lon="4.472230">
						<ele>628</ele>
						<time>2022-11-01T16:24:42Z</time>
					</trkpt>
					<trkpt lat="45.786090" lon="4.472240">
						<ele>628</ele>
						<time>2022-11-01T16:24:56Z</time>
					</trkpt>
					<trkpt lat="45.785920" lon="4.472300">
						<ele>628</ele>
						<time>2022-11-01T16:25:20Z</time>
					</trkpt>
					<trkpt lat="45.785930" lon="4.472360">
						<ele>628</ele>
						<time>2022-11-01T16:25:25Z</time>
					</trkpt>
					<trkpt lat="45.785850" lon="4.472590">
						<ele>628</ele>
						<time>2022-11-01T16:25:49Z</time>
					</trkpt>
					<trkpt lat="45.785720" lon="4.472800">
						<ele>630</ele>
						<time>2022-11-01T16:26:15Z</time>
					</trkpt>
					<trkpt lat="45.785550" lon="4.473000">
						<ele>632</ele>
						<time>2022-11-01T16:26:45Z</time>
					</trkpt>
					<trkpt lat="45.785400" lon="4.473280">
						<ele>635</ele>
						<time>2022-11-01T16:27:18Z</time>
					</trkpt>
					<trkpt lat="45.785170" lon="4.473800">
						<ele>642</ele>
						<time>2022-11-01T16:28:15Z</time>
					</trkpt>
					<trkpt lat="45.784820" lon="4.474190">
						<ele>651</ele>
						<time>2022-11-01T16:29:14Z</time>
					</trkpt>
					<trkpt lat="45.784750" lon="4.474220">
						<ele>652</ele>
						<time>2022-11-01T16:29:24Z</time>
					</trkpt>
					<trkpt lat="45.784140" lon="4.474230">
						<ele>660</ele>
						<time>2022-11-01T16:30:45Z</time>
					</trkpt>
					<trkpt lat="45.783770" lon="4.474180">
						<ele>662</ele>
						<time>2022-11-01T16:31:35Z</time>
					</trkpt>
					<trkpt lat="45.783670" lon="4.474240">
						<ele>664</ele>
						<time>2022-11-01T16:31:49Z</time>
					</trkpt>
					<trkpt lat="45.783090" lon="4.475400">
						<ele>678</ele>
						<time>2022-11-01T16:34:02Z</time>
					</trkpt>
					<trkpt lat="45.782640" lon="4.476460">
						<ele>686</ele>
						<time>2022-11-01T16:35:58Z</time>
					</trkpt>
					<trkpt lat="45.782140" lon="4.477480">
						<ele>691</ele>
						<time>2022-11-01T16:37:54Z</time>
					</trkpt>
					<trkpt lat="45.781930" lon="4.477830">
						<ele>690</ele>
						<time>2022-11-01T16:38:37Z</time>
					</trkpt>
					<trkpt lat="45.781380" lon="4.478440">
						<ele>692</ele>
						<time>2022-11-01T16:40:09Z</time>
					</trkpt>
					<trkpt lat="45.781110" lon="4.478880">
						<ele>693</ele>
						<time>2022-11-01T16:41:04Z</time>
					</trkpt>
					<trkpt lat="45.780400" lon="4.479860">
						<ele>699</ele>
						<time>2022-11-01T16:43:15Z</time>
					</trkpt>
					<trkpt lat="45.780370" lon="4.479930">
						<ele>700</ele>
						<time>2022-11-01T16:43:23Z</time>
					</trkpt>
					<trkpt lat="45.780290" lon="4.480660">
						<ele>708</ele>
						<time>2022-11-01T16:44:32Z</time>
					</trkpt>
					<trkpt lat="45.780210" lon="4.481060">
						<ele>713</ele>
						<time>2022-11-01T16:45:11Z</time>
					</trkpt>
					<trkpt lat="45.780140" lon="4.481250">
						<ele>716</ele>
						<time>2022-11-01T16:45:31Z</time>
					</trkpt>
					<trkpt lat="45.780050" lon="4.481410">
						<ele>718</ele>
						<time>2022-11-01T16:45:50Z</time>
					</trkpt>
					<trkpt lat="45.779790" lon="4.481730">
						<ele>719</ele>
						<time>2022-11-01T16:46:35Z</time>
					</trkpt>
					<trkpt lat="45.779730" lon="4.481840">
						<ele>719</ele>
						<time>2022-11-01T16:46:48Z</time>
					</trkpt>
					<trkpt lat="45.779390" lon="4.482770">
						<ele>728</ele>
						<time>2022-11-01T16:48:26Z</time>
					</trkpt>
					<trkpt lat="45.779290" lon="4.483200">
						<ele>734</ele>
						<time>2022-11-01T16:49:08Z</time>
					</trkpt>
					<trkpt lat="45.779130" lon="4.483480">
						<ele>736</ele>
						<time>2022-11-01T16:49:42Z</time>
					</trkpt>
					<trkpt lat="45.778620" lon="4.484130">
						<ele>734</ele>
						<time>2022-11-01T16:51:13Z</time>
					</trkpt>
					<trkpt lat="45.778490" lon="4.484340">
						<ele>734</ele>
						<time>2022-11-01T16:51:39Z</time>
					</trkpt>
					<trkpt lat="45.778050" lon="4.484830">
						<ele>730</ele>
						<time>2022-11-01T16:52:54Z</time>
					</trkpt>
					<trkpt lat="45.777210" lon="4.485630">
						<ele>730</ele>
						<time>2022-11-01T16:55:08Z</time>
					</trkpt>
					<trkpt lat="45.776890" lon="4.485830">
						<ele>733</ele>
						<time>2022-11-01T16:55:55Z</time>
					</trkpt>
					<trkpt lat="45.776590" lon="4.486110">
						<ele>738</ele>
						<time>2022-11-01T16:56:42Z</time>
					</trkpt>
					<trkpt lat="45.776370" lon="4.486420">
						<ele>744</ele>
						<time>2022-11-01T16:57:24Z</time>
					</trkpt>
					<trkpt lat="45.776130" lon="4.486920">
						<ele>748</ele>
						<time>2022-11-01T16:58:20Z</time>
					</trkpt>
					<trkpt lat="45.776030" lon="4.487080">
						<ele>748</ele>
						<time>2022-11-01T16:58:40Z</time>
					</trkpt>
					<trkpt lat="45.775800" lon="4.487360">
						<ele>748</ele>
						<time>2022-11-01T16:59:20Z</time>
					</trkpt>
					<trkpt lat="45.775640" lon="4.487490">
						<ele>752</ele>
						<time>2022-11-01T16:59:45Z</time>
					</trkpt>
					<trkpt lat="45.775320" lon="4.487840">
						<ele>754</ele>
						<time>2022-11-01T17:00:39Z</time>
					</trkpt>
					<trkpt lat="45.775280" lon="4.487950">
						<ele>752</ele>
						<time>2022-11-01T17:00:50Z</time>
					</trkpt>
					<trkpt lat="45.775230" lon="4.488750">
						<ele>741</ele>
						<time>2022-11-01T17:02:05Z</time>
					</trkpt>
					<trkpt lat="45.774970" lon="4.490440">
						<ele>736</ele>
						<time>2022-11-01T17:04:46Z</time>
					</trkpt>
					<trkpt lat="45.774990" lon="4.491700">
						<ele>734</ele>
						<time>2022-11-01T17:06:43Z</time>
					</trkpt>
					<trkpt lat="45.774930" lon="4.493770">
						<ele>742</ele>
						<time>2022-11-01T17:09:56Z</time>
					</trkpt>
					<trkpt lat="45.774940" lon="4.493950">
						<ele>742</ele>
						<time>2022-11-01T17:10:13Z</time>
					</trkpt>
					<trkpt lat="45.775160" lon="4.495110">
						<ele>739</ele>
						<time>2022-11-01T17:12:05Z</time>
					</trkpt>
					<trkpt lat="45.775260" lon="4.495460">
						<ele>737</ele>
						<time>2022-11-01T17:12:40Z</time>
					</trkpt>
					<trkpt lat="45.775460" lon="4.496730">
						<ele>718</ele>
						<time>2022-11-01T17:14:41Z</time>
					</trkpt>
					<trkpt lat="45.775520" lon="4.496790">
						<ele>716</ele>
						<time>2022-11-01T17:14:51Z</time>
					</trkpt>
					<trkpt lat="45.775570" lon="4.497150">
						<ele>711</ele>
						<time>2022-11-01T17:15:25Z</time>
					</trkpt>
					<trkpt lat="45.775550" lon="4.498180">
						<ele>700</ele>
						<time>2022-11-01T17:17:01Z</time>
					</trkpt>
					<trkpt lat="45.775510" lon="4.498540">
						<ele>697</ele>
						<time>2022-11-01T17:17:35Z</time>
					</trkpt>
					<trkpt lat="45.775530" lon="4.499090">
						<ele>693</ele>
						<time>2022-11-01T17:18:26Z</time>
					</trkpt>
					<trkpt lat="45.775490" lon="4.499380">
						<ele>691</ele>
						<time>2022-11-01T17:18:54Z</time>
					</trkpt>
					<trkpt lat="45.775310" lon="4.499360">
						<ele>691</ele>
						<time>2022-11-01T17:19:18Z</time>
					</trkpt>
					<trkpt lat="45.774760" lon="4.499400">
						<ele>687</ele>
						<time>2022-11-01T17:20:31Z</time>
					</trkpt>
					<trkpt lat="45.774620" lon="4.499390">
						<ele>686</ele>
						<time>2022-11-01T17:20:50Z</time>
					</trkpt>
					<trkpt lat="45.774450" lon="4.499310">
						<ele>685</ele>
						<time>2022-11-01T17:21:14Z</time>
					</trkpt>
					<trkpt lat="45.773720" lon="4.498860">
						<ele>682</ele>
						<time>2022-11-01T17:23:00Z</time>
					</trkpt>
					<trkpt lat="45.773120" lon="4.498620">
						<ele>677</ele>
						<time>2022-11-01T17:24:23Z</time>
					</trkpt>
					<trkpt lat="45.772970" lon="4.498600">
						<ele>675</ele>
						<time>2022-11-01T17:24:43Z</time>
					</trkpt>
					<trkpt lat="45.772580" lon="4.498680">
						<ele>669</ele>
						<time>2022-11-01T17:25:36Z</time>
					</trkpt>
					<trkpt lat="45.772250" lon="4.498650">
						<ele>666</ele>
						<time>2022-11-01T17:26:20Z</time>
					</trkpt>
					<trkpt lat="45.772070" lon="4.498590">
						<ele>665</ele>
						<time>2022-11-01T17:26:45Z</time>
					</trkpt>
					<trkpt lat="45.771720" lon="4.498340">
						<ele>667</ele>
						<time>2022-11-01T17:27:37Z</time>
					</trkpt>
					<trkpt lat="45.771590" lon="4.498310">
						<ele>668</ele>
						<time>2022-11-01T17:27:54Z</time>
					</trkpt>
					<trkpt lat="45.771420" lon="4.498340">
						<ele>668</ele>
						<time>2022-11-01T17:28:17Z</time>
					</trkpt>
					<trkpt lat="45.771260" lon="4.498390">
						<ele>667</ele>
						<time>2022-11-01T17:28:39Z</time>
					</trkpt>
					<trkpt lat="45.770820" lon="4.498700">
						<ele>662</ele>
						<time>2022-11-01T17:29:44Z</time>
					</trkpt>
					<trkpt lat="45.770380" lon="4.498970">
						<ele>657</ele>
						<time>2022-11-01T17:30:48Z</time>
					</trkpt>
					<trkpt lat="45.769740" lon="4.499260">
						<ele>648</ele>
						<time>2022-11-01T17:32:18Z</time>
					</trkpt>
					<trkpt lat="45.769540" lon="4.499580">
						<ele>640</ele>
						<time>2022-11-01T17:32:58Z</time>
					</trkpt>
					<trkpt lat="45.769450" lon="4.499660">
						<ele>638</ele>
						<time>2022-11-01T17:33:12Z</time>
					</trkpt>
					<trkpt lat="45.769250" lon="4.499730">
						<ele>635</ele>
						<time>2022-11-01T17:33:39Z</time>
					</trkpt>
					<trkpt lat="45.769030" lon="4.500230">
						<ele>623</ele>
						<time>2022-11-01T17:34:35Z</time>
					</trkpt>
					<trkpt lat="45.768910" lon="4.500380">
						<ele>619</ele>
						<time>2022-11-01T17:34:56Z</time>
					</trkpt>
					<trkpt lat="45.768700" lon="4.500560">
						<ele>613</ele>
						<time>2022-11-01T17:35:28Z</time>
					</trkpt>
					<trkpt lat="45.768390" lon="4.500940">
						<ele>604</ele>
						<time>2022-11-01T17:36:23Z</time>
					</trkpt>
					<trkpt lat="45.768300" lon="4.501030">
						<ele>601</ele>
						<time>2022-11-01T17:36:37Z</time>
					</trkpt>
					<trkpt lat="45.768020" lon="4.501180">
						<ele>593</ele>
						<time>2022-11-01T17:37:17Z</time>
					</trkpt>
					<trkpt lat="45.767830" lon="4.501420">
						<ele>588</ele>
						<time>2022-11-01T17:37:51Z</time>
					</trkpt>
					<trkpt lat="45.767660" lon="4.501560">
						<ele>585</ele>
						<time>2022-11-01T17:38:17Z</time>
					</trkpt>
					<trkpt lat="45.767370" lon="4.501740">
						<ele>578</ele>
						<time>2022-11-01T17:39:00Z</time>
					</trkpt>
					<trkpt lat="45.767250" lon="4.501650">
						<ele>576</ele>
						<time>2022-11-01T17:39:18Z</time>
					</trkpt>
					<trkpt lat="45.767150" lon="4.501500">
						<ele>574</ele>
						<time>2022-11-01T17:39:37Z</time>
					</trkpt>
					<trkpt lat="45.767090" lon="4.501360">
						<ele>573</ele>
						<time>2022-11-01T17:39:52Z</time>
					</trkpt>
					<trkpt lat="45.767040" lon="4.501150">
						<ele>572</ele>
						<time>2022-11-01T17:40:13Z</time>
					</trkpt>
					<trkpt lat="45.767040" lon="4.500830">
						<ele>572</ele>
						<time>2022-11-01T17:40:43Z</time>
					</trkpt>
					<trkpt lat="45.767140" lon="4.500210">
						<ele>576</ele>
						<time>2022-11-01T17:41:42Z</time>
					</trkpt>
					<trkpt lat="45.767110" lon="4.499830">
						<ele>577</ele>
						<time>2022-11-01T17:42:17Z</time>
					</trkpt>
					<trkpt lat="45.767040" lon="4.499600">
						<ele>576</ele>
						<time>2022-11-01T17:42:41Z</time>
					</trkpt>
					<trkpt lat="45.766920" lon="4.499400">
						<ele>575</ele>
						<time>2022-11-01T17:43:05Z</time>
					</trkpt>
					<trkpt lat="45.766690" lon="4.499110">
						<ele>571</ele>
						<time>2022-11-01T17:43:46Z</time>
					</trkpt>
					<trkpt lat="45.766510" lon="4.499100">
						<ele>568</ele>
						<time>2022-11-01T17:44:10Z</time>
					</trkpt>
					<trkpt lat="45.766200" lon="4.499150">
						<ele>563</ele>
						<time>2022-11-01T17:44:52Z</time>
					</trkpt>
					<trkpt lat="45.765980" lon="4.499040">
						<ele>561</ele>
						<time>2022-11-01T17:45:23Z</time>
					</trkpt>
					<trkpt lat="45.765880" lon="4.499030">
						<ele>559</ele>
						<time>2022-11-01T17:45:36Z</time>
					</trkpt>
					<trkpt lat="45.765280" lon="4.499060">
						<ele>557</ele>
						<time>2022-11-01T17:46:57Z</time>
					</trkpt>
					<trkpt lat="45.765100" lon="4.499020">
						<ele>557</ele>
						<time>2022-11-01T17:47:21Z</time>
					</trkpt>
					<trkpt lat="45.764830" lon="4.498830">
						<ele>557</ele>
						<time>2022-11-01T17:48:01Z</time>
					</trkpt>
					<trkpt lat="45.764730" lon="4.498820">
						<ele>557</ele>
						<time>2022-11-01T17:48:14Z</time>
					</trkpt>
					<trkpt lat="45.764510" lon="4.498870">
						<ele>555</ele>
						<time>2022-11-01T17:48:44Z</time>
					</trkpt>
					<trkpt lat="45.764270" lon="4.498970">
						<ele>553</ele>
						<time>2022-11-01T17:49:17Z</time>
					</trkpt>
					<trkpt lat="45.764090" lon="4.499000">
						<ele>552</ele>
						<time>2022-11-01T17:49:42Z</time>
					</trkpt>
					<trkpt lat="45.763860" lon="4.499000">
						<ele>551</ele>
						<time>2022-11-01T17:50:12Z</time>
					</trkpt>
					<trkpt lat="45.763510" lon="4.498920">
						<ele>550</ele>
						<time>2022-11-01T17:51:00Z</time>
					</trkpt>
					<trkpt lat="45.763380" lon="4.498940">
						<ele>550</ele>
						<time>2022-11-01T17:51:17Z</time>
					</trkpt>
					<trkpt lat="45.762880" lon="4.499210">
						<ele>550</ele>
						<time>2022-11-01T17:52:28Z</time>
					</trkpt>
					<trkpt lat="45.762830" lon="4.499100">
						<ele>551</ele>
						<time>2022-11-01T17:52:41Z</time>
					</trkpt>
					<trkpt lat="45.762740" lon="4.499010">
						<ele>552</ele>
						<time>2022-11-01T17:52:55Z</time>
					</trkpt>
					<trkpt lat="45.762560" lon="4.498940">
						<ele>553</ele>
						<time>2022-11-01T17:53:20Z</time>
					</trkpt>
					<trkpt lat="45.762200" lon="4.498850">
						<ele>553</ele>
						<time>2022-11-01T17:54:09Z</time>
					</trkpt>
					<trkpt lat="45.761920" lon="4.498810">
						<ele>552</ele>
						<time>2022-11-01T17:54:46Z</time>
					</trkpt>
					<trkpt lat="45.761730" lon="4.498830">
						<ele>551</ele>
						<time>2022-11-01T17:55:12Z</time>
					</trkpt>
					<trkpt lat="45.761590" lon="4.498910">
						<ele>550</ele>
						<time>2022-11-01T17:55:32Z</time>
					</trkpt>
					<trkpt lat="45.761650" lon="4.499330">
						<ele>551</ele>
						<time>2022-11-01T17:56:12Z</time>
					</trkpt>
					<trkpt lat="45.761810" lon="4.499650">
						<ele>548</ele>
						<time>2022-11-01T17:56:49Z</time>
					</trkpt>
					<trkpt lat="45.761740" lon="4.499830">
						<ele>546</ele>
						<time>2022-11-01T17:57:08Z</time>
					</trkpt>
					<trkpt lat="45.761350" lon="4.499870">
						<ele>545</ele>
						<time>2022-11-01T17:58:00Z</time>
					</trkpt>
					<trkpt lat="45.761080" lon="4.499860">
						<ele>544</ele>
						<time>2022-11-01T17:58:36Z</time>
					</trkpt>
					<trkpt lat="45.760560" lon="4.500080">
						<ele>541</ele>
						<time>2022-11-01T17:59:48Z</time>
					</trkpt>
					<trkpt lat="45.759460" lon="4.500180">
						<ele>532</ele>
						<time>2022-11-01T18:02:15Z</time>
					</trkpt>
					<trkpt lat="45.758710" lon="4.501060">
						<ele>529</ele>
						<time>2022-11-01T18:04:25Z</time>
					</trkpt>
					<trkpt lat="45.758630" lon="4.501050">
						<ele>528</ele>
						<time>2022-11-01T18:04:35Z</time>
					</trkpt>
					<trkpt lat="45.758340" lon="4.501190">
						<ele>526</ele>
						<time>2022-11-01T18:05:16Z</time>
					</trkpt>
					<trkpt lat="45.757770" lon="4.501370">
						<ele>517</ele>
						<time>2022-11-01T18:06:34Z</time>
					</trkpt>
					<trkpt lat="45.757600" lon="4.501360">
						<ele>514</ele>
						<time>2022-11-01T18:06:57Z</time>
					</trkpt>
					<trkpt lat="45.757580" lon="4.501340">
						<ele>514</ele>
						<time>2022-11-01T18:07:00Z</time>
					</trkpt>
					<trkpt lat="45.757460" lon="4.500900">
						<ele>509</ele>
						<time>2022-11-01T18:07:44Z</time>
					</trkpt>
					<trkpt lat="45.757430" lon="4.500860">
						<ele>508</ele>
						<time>2022-11-01T18:07:50Z</time>
					</trkpt>
					<trkpt lat="45.756740" lon="4.500760">
						<ele>497</ele>
						<time>2022-11-01T18:09:22Z</time>
					</trkpt>
					<trkpt lat="45.755220" lon="4.500420">
						<ele>469</ele>
						<time>2022-11-01T18:12:47Z</time>
					</trkpt>
					<trkpt lat="45.755090" lon="4.500600">
						<ele>467</ele>
						<time>2022-11-01T18:13:12Z</time>
					</trkpt>
					<trkpt lat="45.754870" lon="4.501130">
						<ele>463</ele>
						<time>2022-11-01T18:14:09Z</time>
					</trkpt>
					<trkpt lat="45.754530" lon="4.502780">
						<ele>446</ele>
						<time>2022-11-01T18:16:49Z</time>
					</trkpt>
					<trkpt lat="45.754560" lon="4.503030">
						<ele>445</ele>
						<time>2022-11-01T18:17:13Z</time>
					</trkpt>
					<trkpt lat="45.754820" lon="4.504060">
						<ele>443</ele>
						<time>2022-11-01T18:18:55Z</time>
					</trkpt>
					<trkpt lat="45.754890" lon="4.504610">
						<ele>439</ele>
						<time>2022-11-01T18:19:47Z</time>
					</trkpt>
					<trkpt lat="45.754880" lon="4.505160">
						<ele>435</ele>
						<time>2022-11-01T18:20:38Z</time>
					</trkpt>
					<trkpt lat="45.754440" lon="4.505240">
						<ele>430</ele>
						<time>2022-11-01T18:21:37Z</time>
					</trkpt>
					<trkpt lat="45.754070" lon="4.505350">
						<ele>428</ele>
						<time>2022-11-01T18:22:28Z</time>
					</trkpt>
					<trkpt lat="45.753970" lon="4.505350">
						<ele>430</ele>
						<time>2022-11-01T18:22:41Z</time>
					</trkpt>
					<trkpt lat="45.753810" lon="4.505540">
						<ele>433</ele>
						<time>2022-11-01T18:23:09Z</time>
					</trkpt>
					<trkpt lat="45.753790" lon="4.505610">
						<ele>434</ele>
						<time>2022-11-01T18:23:16Z</time>
					</trkpt>
					<trkpt lat="45.753810" lon="4.505930">
						<ele>434</ele>
						<time>2022-11-01T18:23:46Z</time>
					</trkpt>
					<trkpt lat="45.753700" lon="4.506690">
						<ele>437</ele>
						<time>2022-11-01T18:24:58Z</time>
					</trkpt>
					<trkpt lat="45.753500" lon="4.507480">
						<ele>442</ele>
						<time>2022-11-01T18:26:16Z</time>
					</trkpt>
					<trkpt lat="45.753420" lon="4.507670">
						<ele>445</ele>
						<time>2022-11-01T18:26:37Z</time>
					</trkpt>
					<trkpt lat="45.752880" lon="4.508360">
						<ele>460</ele>
						<time>2022-11-01T18:28:13Z</time>
					</trkpt>
					<trkpt lat="45.752890" lon="4.508410">
						<ele>460</ele>
						<time>2022-11-01T18:28:18Z</time>
					</trkpt>
					<trkpt lat="45.753090" lon="4.508580">
						<ele>456</ele>
						<time>2022-11-01T18:28:49Z</time>
					</trkpt>
					<trkpt lat="45.753270" lon="4.508960">
						<ele>454</ele>
						<time>2022-11-01T18:29:32Z</time>
					</trkpt>
					<trkpt lat="45.753320" lon="4.509270">
						<ele>455</ele>
						<time>2022-11-01T18:30:02Z</time>
					</trkpt>
					<trkpt lat="45.753290" lon="4.509630">
						<ele>459</ele>
						<time>2022-11-01T18:30:35Z</time>
					</trkpt>
					<trkpt lat="45.753210" lon="4.509950">
						<ele>464</ele>
						<time>2022-11-01T18:31:07Z</time>
					</trkpt>
					<trkpt lat="45.753090" lon="4.510210">
						<ele>466</ele>
						<time>2022-11-01T18:31:36Z</time>
					</trkpt>
					<trkpt lat="45.752650" lon="4.510710">
						<ele>478</ele>
						<time>2022-11-01T18:32:51Z</time>
					</trkpt>
					<trkpt lat="45.752640" lon="4.510900">
						<ele>479</ele>
						<time>2022-11-01T18:33:09Z</time>
					</trkpt>
					<trkpt lat="45.752210" lon="4.512080">
						<ele>496</ele>
						<time>2022-11-01T18:35:13Z</time>
					</trkpt>
					<trkpt lat="45.752080" lon="4.512670">
						<ele>503</ele>
						<time>2022-11-01T18:36:10Z</time>
					</trkpt>
					<trkpt lat="45.752050" lon="4.512970">
						<ele>505</ele>
						<time>2022-11-01T18:36:39Z</time>
					</trkpt>
					<trkpt lat="45.752070" lon="4.514100">
						<ele>505</ele>
						<time>2022-11-01T18:38:24Z</time>
					</trkpt>
					<trkpt lat="45.752040" lon="4.514270">
						<ele>506</ele>
						<time>2022-11-01T18:38:40Z</time>
					</trkpt>
					<trkpt lat="45.751800" lon="4.514860">
						<ele>512</ele>
						<time>2022-11-01T18:39:44Z</time>
					</trkpt>
					<trkpt lat="45.751640" lon="4.515170">
						<ele>513</ele>
						<time>2022-11-01T18:40:20Z</time>
					</trkpt>
					<trkpt lat="45.751690" lon="4.515540">
						<ele>511</ele>
						<time>2022-11-01T18:40:55Z</time>
					</trkpt>
					<trkpt lat="45.751720" lon="4.516940">
						<ele>505</ele>
						<time>2022-11-01T18:43:05Z</time>
					</trkpt>
					<trkpt lat="45.751680" lon="4.517960">
						<ele>500</ele>
						<time>2022-11-01T18:44:40Z</time>
					</trkpt>
					<trkpt lat="45.751700" lon="4.518370">
						<ele>496</ele>
						<time>2022-11-01T18:45:19Z</time>
					</trkpt>
					<trkpt lat="45.751810" lon="4.519280">
						<ele>489</ele>
						<time>2022-11-01T18:46:45Z</time>
					</trkpt>
					<trkpt lat="45.750990" lon="4.519620">
						<ele>486</ele>
						<time>2022-11-01T18:48:38Z</time>
					</trkpt>
					<trkpt lat="45.750810" lon="4.519740">
						<ele>484</ele>
						<time>2022-11-01T18:49:05Z</time>
					</trkpt>
					<trkpt lat="45.750370" lon="4.520230">
						<ele>474</ele>
						<time>2022-11-01T18:50:19Z</time>
					</trkpt>
					<trkpt lat="45.750000" lon="4.520340">
						<ele>466</ele>
						<time>2022-11-01T18:51:10Z</time>
					</trkpt>
					<trkpt lat="45.749900" lon="4.521190">
						<ele>458</ele>
						<time>2022-11-01T18:52:30Z</time>
					</trkpt>
					<trkpt lat="45.749860" lon="4.521260">
						<ele>457</ele>
						<time>2022-11-01T18:52:38Z</time>
					</trkpt>
					<trkpt lat="45.749660" lon="4.521890">
						<ele>451</ele>
						<time>2022-11-01T18:53:43Z</time>
					</trkpt>
					<trkpt lat="45.749600" lon="4.522200">
						<ele>449</ele>
						<time>2022-11-01T18:54:13Z</time>
					</trkpt>
					<trkpt lat="45.749390" lon="4.522580">
						<ele>447</ele>
						<time>2022-11-01T18:54:58Z</time>
					</trkpt>
					<trkpt lat="45.749500" lon="4.522810">
						<ele>447</ele>
						<time>2022-11-01T18:55:24Z</time>
					</trkpt>
					<trkpt lat="45.749520" lon="4.522990">
						<ele>446</ele>
						<time>2022-11-01T18:55:41Z</time>
					</trkpt>
					<trkpt lat="45.749280" lon="4.523060">
						<ele>446</ele>
						<time>2022-11-01T18:56:14Z</time>
					</trkpt>
					<trkpt lat="45.749200" lon="4.523110">
						<ele>446</ele>
						<time>2022-11-01T18:56:25Z</time>
					</trkpt>
					<trkpt lat="45.748820" lon="4.523780">
						<ele>449</ele>
						<time>2022-11-01T18:57:46Z</time>
					</trkpt>
					<trkpt lat="45.748720" lon="4.524020">
						<ele>449</ele>
						<time>2022-11-01T18:58:12Z</time>
					</trkpt>
					<trkpt lat="45.748670" lon="4.524050">
						<ele>449</ele>
						<time>2022-11-01T18:58:19Z</time>
					</trkpt>
					<trkpt lat="45.748560" lon="4.524230">
						<ele>449</ele>
						<time>2022-11-01T18:58:41Z</time>
					</trkpt>
					<trkpt lat="45.748430" lon="4.524310">
						<ele>450</ele>
						<time>2022-11-01T18:59:00Z</time>
					</trkpt>
					<trkpt lat="45.748250" lon="4.524380">
						<ele>451</ele>
						<time>2022-11-01T18:59:25Z</time>
					</trkpt>
					<trkpt lat="45.748370" lon="4.524750">
						<ele>450</ele>
						<time>2022-11-01T19:00:03Z</time>
					</trkpt>
					<trkpt lat="45.748560" lon="4.525180">
						<ele>447</ele>
						<time>2022-11-01T19:00:50Z</time>
					</trkpt>
					<trkpt lat="45.748660" lon="4.525560">
						<ele>445</ele>
						<time>2022-11-01T19:01:28Z</time>
					</trkpt>
					<trkpt lat="45.748720" lon="4.526240">
						<ele>444</ele>
						<time>2022-11-01T19:02:32Z</time>
					</trkpt>
					<trkpt lat="45.748720" lon="4.526520">
						<ele>443</ele>
						<time>2022-11-01T19:02:58Z</time>
					</trkpt>
					<trkpt lat="45.748610" lon="4.527910">
						<ele>441</ele>
						<time>2022-11-01T19:05:08Z</time>
					</trkpt>
					<trkpt lat="45.748580" lon="4.528150">
						<ele>442</ele>
						<time>2022-11-01T19:05:31Z</time>
					</trkpt>
					<trkpt lat="45.748430" lon="4.528670">
						<ele>444</ele>
						<time>2022-11-01T19:06:23Z</time>
					</trkpt>
					<trkpt lat="45.748250" lon="4.529170">
						<ele>445</ele>
						<time>2022-11-01T19:07:16Z</time>
					</trkpt>
					<trkpt lat="45.748230" lon="4.529290">
						<ele>445</ele>
						<time>2022-11-01T19:07:27Z</time>
					</trkpt>
					<trkpt lat="45.748170" lon="4.529940">
						<ele>443</ele>
						<time>2022-11-01T19:08:28Z</time>
					</trkpt>
					<trkpt lat="45.748120" lon="4.530910">
						<ele>433</ele>
						<time>2022-11-01T19:09:59Z</time>
					</trkpt>
					<trkpt lat="45.747990" lon="4.532000">
						<ele>422</ele>
						<time>2022-11-01T19:11:42Z</time>
					</trkpt>
					<trkpt lat="45.747920" lon="4.533000">
						<ele>412</ele>
						<time>2022-11-01T19:13:15Z</time>
					</trkpt>
					<trkpt lat="45.747890" lon="4.533930">
						<ele>402</ele>
						<time>2022-11-01T19:14:42Z</time>
					</trkpt>
					<trkpt lat="45.747760" lon="4.534310">
						<ele>399</ele>
						<time>2022-11-01T19:15:22Z</time>
					</trkpt>
					<trkpt lat="45.747450" lon="4.535970">
						<ele>390</ele>
						<time>2022-11-01T19:18:02Z</time>
					</trkpt>
					<trkpt lat="45.747170" lon="4.537010">
						<ele>375</ele>
						<time>2022-11-01T19:19:45Z</time>
					</trkpt>
					<trkpt lat="45.747080" lon="4.537610">
						<ele>369</ele>
						<time>2022-11-01T19:20:43Z</time>
					</trkpt>
					<trkpt lat="45.747040" lon="4.538090">
						<ele>365</ele>
						<time>2022-11-01T19:21:28Z</time>
					</trkpt>
					<trkpt lat="45.747120" lon="4.538970">
						<ele>357</ele>
						<time>2022-11-01T19:22:50Z</time>
					</trkpt>
					<trkpt lat="45.746920" lon="4.539530">
						<ele>351</ele>
						<time>2022-11-01T19:23:49Z</time>
					</trkpt>
					<trkpt lat="45.746690" lon="4.540490">
						<ele>333</ele>
						<time>2022-11-01T19:25:23Z</time>
					</trkpt>
					<trkpt lat="45.746410" lon="4.540730">
						<ele>326</ele>
						<time>2022-11-01T19:26:07Z</time>
					</trkpt>
					<trkpt lat="45.746520" lon="4.540810">
						<ele>325</ele>
						<time>2022-11-01T19:26:23Z</time>
					</trkpt>
					<trkpt lat="45.746720" lon="4.541090">
						<ele>325</ele>
						<time>2022-11-01T19:27:01Z</time>
					</trkpt>
					<trkpt lat="45.746710" lon="4.541270">
						<ele>323</ele>
						<time>2022-11-01T19:27:17Z</time>
					</trkpt>
					<trkpt lat="45.746610" lon="4.541160">
						<ele>323</ele>
						<time>2022-11-01T19:27:34Z</time>
					</trkpt>
					<trkpt lat="45.746170" lon="4.540910">
						<ele>322</ele>
						<time>2022-11-01T19:28:37Z</time>
					</trkpt>
					<trkpt lat="45.745970" lon="4.540870">
						<ele>321</ele>
						<time>2022-11-01T19:29:04Z</time>
					</trkpt>
					<trkpt lat="45.745890" lon="4.540900">
						<ele>320</ele>
						<time>2022-11-01T19:29:15Z</time>
					</trkpt>
					<trkpt lat="45.745860" lon="4.540960">
						<ele>320</ele>
						<time>2022-11-01T19:29:22Z</time>
					</trkpt>
					<trkpt lat="45.745760" lon="4.541340">
						<ele>321</ele>
						<time>2022-11-01T19:30:00Z</time>
					</trkpt>
					<trkpt lat="45.745760" lon="4.541630">
						<ele>322</ele>
						<time>2022-11-01T19:30:27Z</time>
					</trkpt>
					<trkpt lat="45.745880" lon="4.541930">
						<ele>322</ele>
						<time>2022-11-01T19:30:59Z</time>
					</trkpt>
					<trkpt lat="45.746020" lon="4.542140">
						<ele>322</ele>
						<time>2022-11-01T19:31:26Z</time>
					</trkpt>
					<trkpt lat="45.746330" lon="4.542470">
						<ele>320</ele>
						<time>2022-11-01T19:32:18Z</time>
					</trkpt>
					<trkpt lat="45.746200" lon="4.542740">
						<ele>321</ele>
						<time>2022-11-01T19:32:48Z</time>
					</trkpt>
					<trkpt lat="45.746180" lon="4.542830">
						<ele>322</ele>
						<time>2022-11-01T19:32:57Z</time>
					</trkpt>
					<trkpt lat="45.746220" lon="4.543620">
						<ele>323</ele>
						<time>2022-11-01T19:34:11Z</time>
					</trkpt>
					<trkpt lat="45.746200" lon="4.543660">
						<ele>324</ele>
						<time>2022-11-01T19:34:16Z</time>
					</trkpt>
					<trkpt lat="45.746200" lon="4.543800">
						<ele>325</ele>
						<time>2022-11-01T19:34:29Z</time>
					</trkpt>
					<trkpt lat="45.746110" lon="4.544130">
						<ele>327</ele>
						<time>2022-11-01T19:35:02Z</time>
					</trkpt>
					<trkpt lat="45.745220" lon="4.543850">
						<ele>330</ele>
						<time>2022-11-01T19:37:03Z</time>
					</trkpt>
					<trkpt lat="45.744590" lon="4.543680">
						<ele>333</ele>
						<time>2022-11-01T19:38:29Z</time>
					</trkpt>
					<trkpt lat="45.744200" lon="4.543520">
						<ele>334</ele>
						<time>2022-11-01T19:39:23Z</time>
					</trkpt>
					<trkpt lat="45.743790" lon="4.543450">
						<ele>336</ele>
						<time>2022-11-01T19:40:18Z</time>
					</trkpt>
					<trkpt lat="45.743720" lon="4.543320">
						<ele>336</ele>
						<time>2022-11-01T19:40:33Z</time>
					</trkpt>
					<trkpt lat="45.743730" lon="4.542930">
						<ele>339</ele>
						<time>2022-11-01T19:41:10Z</time>
					</trkpt>
					<trkpt lat="45.743340" lon="4.542420">
						<ele>348</ele>
						<time>2022-11-01T19:42:20Z</time>
					</trkpt>
					<trkpt lat="45.743170" lon="4.541890">
						<ele>356</ele>
						<time>2022-11-01T19:43:14Z</time>
					</trkpt>
					<trkpt lat="45.743160" lon="4.541610">
						<ele>359</ele>
						<time>2022-11-01T19:43:41Z</time>
					</trkpt>
					<trkpt lat="45.743260" lon="4.541230">
						<ele>360</ele>
						<time>2022-11-01T19:44:18Z</time>
					</trkpt>
					<trkpt lat="45.743380" lon="4.541090">
						<ele>360</ele>
						<time>2022-11-01T19:44:39Z</time>
					</trkpt>
					<trkpt lat="45.743430" lon="4.540990">
						<ele>360</ele>
						<time>2022-11-01T19:44:50Z</time>
					</trkpt>
					<trkpt lat="45.743410" lon="4.540610">
						<ele>361</ele>
						<time>2022-11-01T19:45:26Z</time>
					</trkpt>
					<trkpt lat="45.743150" lon="4.540620">
						<ele>365</ele>
						<time>2022-11-01T19:46:01Z</time>
					</trkpt>
					<trkpt lat="45.742890" lon="4.540570">
						<ele>367</ele>
						<time>2022-11-01T19:46:36Z</time>
					</trkpt>
					<trkpt lat="45.742200" lon="4.540310">
						<ele>373</ele>
						<time>2022-11-01T19:48:11Z</time>
					</trkpt>
					<trkpt lat="45.741770" lon="4.539780">
						<ele>377</ele>
						<time>2022-11-01T19:49:27Z</time>
					</trkpt>
					<trkpt lat="45.741680" lon="4.539630">
						<ele>378</ele>
						<time>2022-11-01T19:49:45Z</time>
					</trkpt>
					<trkpt lat="45.741420" lon="4.538950">
						<ele>382</ele>
						<time>2022-11-01T19:50:57Z</time>
					</trkpt>
					<trkpt lat="45.741210" lon="4.538510">
						<ele>383</ele>
						<time>2022-11-01T19:51:47Z</time>
					</trkpt>
					<trkpt lat="45.741000" lon="4.538300">
						<ele>383</ele>
						<time>2022-11-01T19:52:21Z</time>
					</trkpt>
					<trkpt lat="45.740740" lon="4.537850">
						<ele>380</ele>
						<time>2022-11-01T19:53:15Z</time>
					</trkpt>
					<trkpt lat="45.740570" lon="4.537700">
						<ele>380</ele>
						<time>2022-11-01T19:53:42Z</time>
					</trkpt>
					<trkpt lat="45.740440" lon="4.537650">
						<ele>381</ele>
						<time>2022-11-01T19:54:00Z</time>
					</trkpt>
					<trkpt lat="45.740330" lon="4.537680">
						<ele>383</ele>
						<time>2022-11-01T19:54:15Z</time>
					</trkpt>
					<trkpt lat="45.740080" lon="4.537860">
						<ele>387</ele>
						<time>2022-11-01T19:54:52Z</time>
					</trkpt>
					<trkpt lat="45.739970" lon="4.537910">
						<ele>389</ele>
						<time>2022-11-01T19:55:08Z</time>
					</trkpt>
					<trkpt lat="45.739880" lon="4.537880">
						<ele>390</ele>
						<time>2022-11-01T19:55:20Z</time>
					</trkpt>
					<trkpt lat="45.739750" lon="4.537700">
						<ele>392</ele>
						<time>2022-11-01T19:55:44Z</time>
					</trkpt>
					<trkpt lat="45.739620" lon="4.537760">
						<ele>395</ele>
						<time>2022-11-01T19:56:02Z</time>
					</trkpt>
					<trkpt lat="45.739520" lon="4.537840">
						<ele>397</ele>
						<time>2022-11-01T19:56:18Z</time>
					</trkpt>
					<trkpt lat="45.739300" lon="4.538210">
						<ele>401</ele>
						<time>2022-11-01T19:57:03Z</time>
					</trkpt>
					<trkpt lat="45.739170" lon="4.538360">
						<ele>403</ele>
						<time>2022-11-01T19:57:25Z</time>
					</trkpt>
					<trkpt lat="45.738840" lon="4.538650">
						<ele>411</ele>
						<time>2022-11-01T19:58:17Z</time>
					</trkpt>
					<trkpt lat="45.738740" lon="4.538700">
						<ele>413</ele>
						<time>2022-11-01T19:58:31Z</time>
					</trkpt>
					<trkpt lat="45.738600" lon="4.538730">
						<ele>416</ele>
						<time>2022-11-01T19:58:50Z</time>
					</trkpt>
					<trkpt lat="45.738520" lon="4.538780">
						<ele>418</ele>
						<time>2022-11-01T19:59:02Z</time>
					</trkpt>
					<trkpt lat="45.738440" lon="4.538890">
						<ele>419</ele>
						<time>2022-11-01T19:59:16Z</time>
					</trkpt>
					<trkpt lat="45.738280" lon="4.539250">
						<ele>423</ele>
						<time>2022-11-01T19:59:56Z</time>
					</trkpt>
					<trkpt lat="45.738270" lon="4.539470">
						<ele>425</ele>
						<time>2022-11-01T20:00:17Z</time>
					</trkpt>
					<trkpt lat="45.738560" lon="4.539780">
						<ele>423</ele>
						<time>2022-11-01T20:01:05Z</time>
					</trkpt>
					<trkpt lat="45.738970" lon="4.540130">
						<ele>422</ele>
						<time>2022-11-01T20:02:09Z</time>
					</trkpt>
					<trkpt lat="45.739200" lon="4.540440">
						<ele>423</ele>
						<time>2022-11-01T20:02:51Z</time>
					</trkpt>
					<trkpt lat="45.739250" lon="4.540650">
						<ele>426</ele>
						<time>2022-11-01T20:03:11Z</time>
					</trkpt>
					<trkpt lat="45.739250" lon="4.540760">
						<ele>427</ele>
						<time>2022-11-01T20:03:22Z</time>
					</trkpt>
					<trkpt lat="45.739160" lon="4.540750">
						<ele>429</ele>
						<time>2022-11-01T20:03:34Z</time>
					</trkpt>
					<trkpt lat="45.739020" lon="4.540630">
						<ele>429</ele>
						<time>2022-11-01T20:03:55Z</time>
					</trkpt>
					<trkpt lat="45.738470" lon="4.540970">
						<ele>442</ele>
						<time>2022-11-01T20:05:15Z</time>
					</trkpt>
					<trkpt lat="45.738200" lon="4.541400">
						<ele>449</ele>
						<time>2022-11-01T20:06:09Z</time>
					</trkpt>
					<trkpt lat="45.737750" lon="4.541740">
						<ele>457</ele>
						<time>2022-11-01T20:07:17Z</time>
					</trkpt>
					<trkpt lat="45.737540" lon="4.541790">
						<ele>460</ele>
						<time>2022-11-01T20:07:46Z</time>
					</trkpt>
					<trkpt lat="45.736780" lon="4.542150">
						<ele>476</ele>
						<time>2022-11-01T20:09:32Z</time>
					</trkpt>
					<trkpt lat="45.736630" lon="4.542270">
						<ele>480</ele>
						<time>2022-11-01T20:09:55Z</time>
					</trkpt>
					<trkpt lat="45.736070" lon="4.542370">
						<ele>494</ele>
						<time>2022-11-01T20:11:11Z</time>
					</trkpt>
					<trkpt lat="45.735830" lon="4.542470">
						<ele>500</ele>
						<time>2022-11-01T20:11:44Z</time>
					</trkpt>
					<trkpt lat="45.735650" lon="4.542560">
						<ele>500</ele>
						<time>2022-11-01T20:12:09Z</time>
					</trkpt>
					<trkpt lat="45.735180" lon="4.542910">
						<ele>500</ele>
						<time>2022-11-01T20:13:20Z</time>
					</trkpt>
					<trkpt lat="45.734800" lon="4.543260">
						<ele>502</ele>
						<time>2022-11-01T20:14:20Z</time>
					</trkpt>
					<trkpt lat="45.734700" lon="4.543380">
						<ele>503</ele>
						<time>2022-11-01T20:14:38Z</time>
					</trkpt>
					<trkpt lat="45.734440" lon="4.543730">
						<ele>506</ele>
						<time>2022-11-01T20:15:25Z</time>
					</trkpt>
					<trkpt lat="45.734170" lon="4.544160">
						<ele>513</ele>
						<time>2022-11-01T20:16:19Z</time>
					</trkpt>
					<trkpt lat="45.733360" lon="4.545250">
						<ele>533</ele>
						<time>2022-11-01T20:18:48Z</time>
					</trkpt>
					<trkpt lat="45.732000" lon="4.546600">
						<ele>559</ele>
						<time>2022-11-01T20:22:28Z</time>
					</trkpt>
					<trkpt lat="45.731850" lon="4.546710">
						<ele>563</ele>
						<time>2022-11-01T20:22:51Z</time>
					</trkpt>
					<trkpt lat="45.731190" lon="4.547340">
						<ele>581</ele>
						<time>2022-11-01T20:24:37Z</time>
					</trkpt>
					<trkpt lat="45.730590" lon="4.548040">
						<ele>600</ele>
						<time>2022-11-01T20:26:20Z</time>
					</trkpt>
					<trkpt lat="45.730490" lon="4.548200">
						<ele>604</ele>
						<time>2022-11-01T20:26:40Z</time>
					</trkpt>
					<trkpt lat="45.730490" lon="4.548330">
						<ele>607</ele>
						<time>2022-11-01T20:26:52Z</time>
					</trkpt>
					<trkpt lat="45.730460" lon="4.548400">
						<ele>608</ele>
						<time>2022-11-01T20:27:00Z</time>
					</trkpt>
					<trkpt lat="45.730350" lon="4.548470">
						<ele>610</ele>
						<time>2022-11-01T20:27:16Z</time>
					</trkpt>
					<trkpt lat="45.729040" lon="4.548970">
						<ele>644</ele>
						<time>2022-11-01T20:30:17Z</time>
					</trkpt>
					<trkpt lat="45.728410" lon="4.549120">
						<ele>657</ele>
						<time>2022-11-01T20:31:42Z</time>
					</trkpt>
					<trkpt lat="45.728210" lon="4.549060">
						<ele>658</ele>
						<time>2022-11-01T20:32:09Z</time>
					</trkpt>
					<trkpt lat="45.727930" lon="4.549050">
						<ele>663</ele>
						<time>2022-11-01T20:32:47Z</time>
					</trkpt>
					<trkpt lat="45.726810" lon="4.548660">
						<ele>670</ele>
						<time>2022-11-01T20:35:20Z</time>
					</trkpt>
					<trkpt lat="45.726530" lon="4.548650">
						<ele>671</ele>
						<time>2022-11-01T20:35:58Z</time>
					</trkpt>
					<trkpt lat="45.726290" lon="4.548720">
						<ele>672</ele>
						<time>2022-11-01T20:36:30Z</time>
					</trkpt>
					<trkpt lat="45.726130" lon="4.548830">
						<ele>672</ele>
						<time>2022-11-01T20:36:54Z</time>
					</trkpt>
					<trkpt lat="45.726010" lon="4.548980">
						<ele>673</ele>
						<time>2022-11-01T20:37:15Z</time>
					</trkpt>
					<trkpt lat="45.726040" lon="4.549050">
						<ele>674</ele>
						<time>2022-11-01T20:37:23Z</time>
					</trkpt>
					<trkpt lat="45.725960" lon="4.549100">
						<ele>674</ele>
						<time>2022-11-01T20:37:35Z</time>
					</trkpt>
					<trkpt lat="45.725790" lon="4.549380">
						<ele>675</ele>
						<time>2022-11-01T20:38:09Z</time>
					</trkpt>
					<trkpt lat="45.725720" lon="4.549420">
						<ele>675</ele>
						<time>2022-11-01T20:38:19Z</time>
					</trkpt>
					<trkpt lat="45.725540" lon="4.549450">
						<ele>675</ele>
						<time>2022-11-01T20:38:43Z</time>
					</trkpt>
					<trkpt lat="45.724750" lon="4.549300">
						<ele>671</ele>
						<time>2022-11-01T20:40:30Z</time>
					</trkpt>
					<trkpt lat="45.724410" lon="4.549270">
						<ele>671</ele>
						<time>2022-11-01T20:41:15Z</time>
					</trkpt>
					<trkpt lat="45.723820" lon="4.548970">
						<ele>669</ele>
						<time>2022-11-01T20:42:39Z</time>
					</trkpt>
					<trkpt lat="45.723570" lon="4.548930">
						<ele>669</ele>
						<time>2022-11-01T20:43:12Z</time>
					</trkpt>
					<trkpt lat="45.723400" lon="4.548860">
						<ele>669</ele>
						<time>2022-11-01T20:43:36Z</time>
					</trkpt>
					<trkpt lat="45.723060" lon="4.548660">
						<ele>670</ele>
						<time>2022-11-01T20:44:25Z</time>
					</trkpt>
					<trkpt lat="45.722560" lon="4.548210">
						<ele>671</ele>
						<time>2022-11-01T20:45:44Z</time>
					</trkpt>
					<trkpt lat="45.722560" lon="4.548150">
						<ele>670</ele>
						<time>2022-11-01T20:45:49Z</time>
					</trkpt>
					<trkpt lat="45.722480" lon="4.547950">
						<ele>668</ele>
						<time>2022-11-01T20:46:11Z</time>
					</trkpt>
					<trkpt lat="45.721860" lon="4.547290">
						<ele>667</ele>
						<time>2022-11-01T20:47:54Z</time>
					</trkpt>
					<trkpt lat="45.721530" lon="4.546770">
						<ele>662</ele>
						<time>2022-11-01T20:48:59Z</time>
					</trkpt>
					<trkpt lat="45.721340" lon="4.546550">
						<ele>659</ele>
						<time>2022-11-01T20:49:32Z</time>
					</trkpt>
					<trkpt lat="45.721200" lon="4.546450">
						<ele>658</ele>
						<time>2022-11-01T20:49:53Z</time>
					</trkpt>
					<trkpt lat="45.720190" lon="4.545900">
						<ele>659</ele>
						<time>2022-11-01T20:52:17Z</time>
					</trkpt>
					<trkpt lat="45.719690" lon="4.545960">
						<ele>669</ele>
						<time>2022-11-01T20:53:24Z</time>
					</trkpt>
					<trkpt lat="45.719600" lon="4.545950">
						<ele>670</ele>
						<time>2022-11-01T20:53:36Z</time>
					</trkpt>
					<trkpt lat="45.719530" lon="4.545810">
						<ele>671</ele>
						<time>2022-11-01T20:53:52Z</time>
					</trkpt>
					<trkpt lat="45.719450" lon="4.545370">
						<ele>668</ele>
						<time>2022-11-01T20:54:35Z</time>
					</trkpt>
					<trkpt lat="45.719390" lon="4.545360">
						<ele>670</ele>
						<time>2022-11-01T20:54:43Z</time>
					</trkpt>
					<trkpt lat="45.719220" lon="4.545140">
						<ele>671</ele>
						<time>2022-11-01T20:55:13Z</time>
					</trkpt>
					<trkpt lat="45.719200" lon="4.545130">
						<ele>671</ele>
						<time>2022-11-01T20:55:16Z</time>
					</trkpt>
					<trkpt lat="45.719150" lon="4.545160">
						<ele>672</ele>
						<time>2022-11-01T20:55:23Z</time>
					</trkpt>
					<trkpt lat="45.719040" lon="4.545360">
						<ele>678</ele>
						<time>2022-11-01T20:55:47Z</time>
					</trkpt>
					<trkpt lat="45.718950" lon="4.545420">
						<ele>682</ele>
						<time>2022-11-01T20:56:00Z</time>
					</trkpt>
					<trkpt lat="45.718560" lon="4.545060">
						<ele>690</ele>
						<time>2022-11-01T20:57:02Z</time>
					</trkpt>
					<trkpt lat="45.718280" lon="4.544960">
						<ele>698</ele>
						<time>2022-11-01T20:57:41Z</time>
					</trkpt>
					<trkpt lat="45.718100" lon="4.544820">
						<ele>702</ele>
						<time>2022-11-01T20:58:08Z</time>
					</trkpt>
					<trkpt lat="45.718010" lon="4.544780">
						<ele>704</ele>
						<time>2022-11-01T20:58:21Z</time>
					</trkpt>
					<trkpt lat="45.717860" lon="4.544770">
						<ele>710</ele>
						<time>2022-11-01T20:58:41Z</time>
					</trkpt>
					<trkpt lat="45.717570" lon="4.544640">
						<ele>718</ele>
						<time>2022-11-01T20:59:21Z</time>
					</trkpt>
					<trkpt lat="45.716870" lon="4.543950">
						<ele>732</ele>
						<time>2022-11-01T21:01:15Z</time>
					</trkpt>
					<trkpt lat="45.716430" lon="4.543200">
						<ele>736</ele>
						<time>2022-11-01T21:02:46Z</time>
					</trkpt>
					<trkpt lat="45.716310" lon="4.543060">
						<ele>737</ele>
						<time>2022-11-01T21:03:06Z</time>
					</trkpt>
					<trkpt lat="45.716120" lon="4.542940">
						<ele>740</ele>
						<time>2022-11-01T21:03:34Z</time>
					</trkpt>
					<trkpt lat="45.715820" lon="4.542870">
						<ele>746</ele>
						<time>2022-11-01T21:04:15Z</time>
					</trkpt>
					<trkpt lat="45.715650" lon="4.542870">
						<ele>743</ele>
						<time>2022-11-01T21:04:37Z</time>
					</trkpt>
					<trkpt lat="45.715580" lon="4.542920">
						<ele>742</ele>
						<time>2022-11-01T21:04:48Z</time>
					</trkpt>
					<trkpt lat="45.715520" lon="4.543480">
						<ele>748</ele>
						<time>2022-11-01T21:05:41Z</time>
					</trkpt>
					<trkpt lat="45.715710" lon="4.544590">
						<ele>767</ele>
						<time>2022-11-01T21:07:27Z</time>
					</trkpt>
					<trkpt lat="45.715710" lon="4.545120">
						<ele>773</ele>
						<time>2022-11-01T21:08:17Z</time>
					</trkpt>
					<trkpt lat="45.715730" lon="4.545290">
						<ele>775</ele>
						<time>2022-11-01T21:08:33Z</time>
					</trkpt>
					<trkpt lat="45.715770" lon="4.545390">
						<ele>778</ele>
						<time>2022-11-01T21:08:43Z</time>
					</trkpt>
					<trkpt lat="45.715720" lon="4.545780">
						<ele>782</ele>
						<time>2022-11-01T21:09:20Z</time>
					</trkpt>
					<trkpt lat="45.715550" lon="4.546540">
						<ele>790</ele>
						<time>2022-11-01T21:10:35Z</time>
					</trkpt>
					<trkpt lat="45.715400" lon="4.547450">
						<ele>798</ele>
						<time>2022-11-01T21:12:02Z</time>
					</trkpt>
					<trkpt lat="45.715120" lon="4.548290">
						<ele>803</ele>
						<time>2022-11-01T21:13:28Z</time>
					</trkpt>
					<trkpt lat="45.714720" lon="4.549210">
						<ele>807</ele>
						<time>2022-11-01T21:15:09Z</time>
					</trkpt>
					<trkpt lat="45.714150" lon="4.550080">
						<ele>815</ele>
						<time>2022-11-01T21:17:01Z</time>
					</trkpt>
					<trkpt lat="45.713850" lon="4.550760">
						<ele>823</ele>
						<time>2022-11-01T21:18:16Z</time>
					</trkpt>
					<trkpt lat="45.713210" lon="4.551790">
						<ele>832</ele>
						<time>2022-11-01T21:20:24Z</time>
					</trkpt>
					<trkpt lat="45.713000" lon="4.552080">
						<ele>837</ele>
						<time>2022-11-01T21:21:03Z</time>
					</trkpt>
					<trkpt lat="45.712440" lon="4.552510">
						<ele>842</ele>
						<time>2022-11-01T21:22:28Z</time>
					</trkpt>
					<trkpt lat="45.711720" lon="4.553200">
						<ele>851</ele>
						<time>2022-11-01T21:24:23Z</time>
					</trkpt>
					<trkpt lat="45.711080" lon="4.554030">
						<ele>858</ele>
						<time>2022-11-01T21:26:19Z</time>
					</trkpt>
					<trkpt lat="45.710900" lon="4.554210">
						<ele>860</ele>
						<time>2022-11-01T21:26:48Z</time>
					</trkpt>
					<trkpt lat="45.710800" lon="4.554270">
						<ele>860</ele>
						<time>2022-11-01T21:27:02Z</time>
					</trkpt>
					<trkpt lat="45.710720" lon="4.554570">
						<ele>862</ele>
						<time>2022-11-01T21:27:32Z</time>
					</trkpt>
					<trkpt lat="45.710680" lon="4.554620">
						<ele>862</ele>
						<time>2022-11-01T21:27:39Z</time>
					</trkpt>
					<trkpt lat="45.709910" lon="4.555260">
						<ele>872</ele>
						<time>2022-11-01T21:29:38Z</time>
					</trkpt>
					<trkpt lat="45.709770" lon="4.555440">
						<ele>876</ele>
						<time>2022-11-01T21:30:03Z</time>
					</trkpt>
					<trkpt lat="45.709290" lon="4.555690">
						<ele>880</ele>
						<time>2022-11-01T21:31:11Z</time>
					</trkpt>
					<trkpt lat="45.709050" lon="4.555940">
						<ele>884</ele>
						<time>2022-11-01T21:31:51Z</time>
					</trkpt>
					<trkpt lat="45.708900" lon="4.556030">
						<ele>885</ele>
						<time>2022-11-01T21:32:13Z</time>
					</trkpt>
					<trkpt lat="45.708700" lon="4.556140">
						<ele>886</ele>
						<time>2022-11-01T21:32:41Z</time>
					</trkpt>
					<trkpt lat="45.708160" lon="4.556370">
						<ele>888</ele>
						<time>2022-11-01T21:33:57Z</time>
					</trkpt>
					<trkpt lat="45.708040" lon="4.556460">
						<ele>889</ele>
						<time>2022-11-01T21:34:15Z</time>
					</trkpt>
					<trkpt lat="45.707890" lon="4.556650">
						<ele>891</ele>
						<time>2022-11-01T21:34:41Z</time>
					</trkpt>
					<trkpt lat="45.707740" lon="4.556910">
						<ele>893</ele>
						<time>2022-11-01T21:35:13Z</time>
					</trkpt>
					<trkpt lat="45.707010" lon="4.558370">
						<ele>896</ele>
						<time>2022-11-01T21:38:00Z</time>
					</trkpt>
					<trkpt lat="45.706280" lon="4.559710">
						<ele>887</ele>
						<time>2022-11-01T21:40:38Z</time>
					</trkpt>
					<trkpt lat="45.706020" lon="4.560080">
						<ele>886</ele>
						<time>2022-11-01T21:41:27Z</time>
					</trkpt>
					<trkpt lat="45.705770" lon="4.560370">
						<ele>885</ele>
						<time>2022-11-01T21:42:10Z</time>
					</trkpt>
					<trkpt lat="45.705130" lon="4.561310">
						<ele>874</ele>
						<time>2022-11-01T21:44:13Z</time>
					</trkpt>
					<trkpt lat="45.704950" lon="4.561730">
						<ele>873</ele>
						<time>2022-11-01T21:44:59Z</time>
					</trkpt>
					<trkpt lat="45.704710" lon="4.562150">
						<ele>869</ele>
						<time>2022-11-01T21:45:49Z</time>
					</trkpt>
					<trkpt lat="45.704620" lon="4.562260">
						<ele>868</ele>
						<time>2022-11-01T21:46:05Z</time>
					</trkpt>
					<trkpt lat="45.704440" lon="4.562430">
						<ele>868</ele>
						<time>2022-11-01T21:46:34Z</time>
					</trkpt>
					<trkpt lat="45.704120" lon="4.562630">
						<ele>868</ele>
						<time>2022-11-01T21:47:20Z</time>
					</trkpt>
					<trkpt lat="45.703950" lon="4.562700">
						<ele>866</ele>
						<time>2022-11-01T21:47:44Z</time>
					</trkpt>
					<trkpt lat="45.703340" lon="4.563250">
						<ele>869</ele>
						<time>2022-11-01T21:49:20Z</time>
					</trkpt>
					<trkpt lat="45.703210" lon="4.563330">
						<ele>869</ele>
						<time>2022-11-01T21:49:39Z</time>
					</trkpt>
					<trkpt lat="45.702600" lon="4.563600">
						<ele>871</ele>
						<time>2022-11-01T21:51:04Z</time>
					</trkpt>
					<trkpt lat="45.702030" lon="4.563630">
						<ele>871</ele>
						<time>2022-11-01T21:52:20Z</time>
					</trkpt>
					<trkpt lat="45.701680" lon="4.563950">
						<ele>875</ele>
						<time>2022-11-01T21:53:16Z</time>
					</trkpt>
					<trkpt lat="45.701590" lon="4.564080">
						<ele>877</ele>
						<time>2022-11-01T21:53:33Z</time>
					</trkpt>
					<trkpt lat="45.701520" lon="4.564280">
						<ele>879</ele>
						<time>2022-11-01T21:53:54Z</time>
					</trkpt>
					<trkpt lat="45.701470" lon="4.564550">
						<ele>879</ele>
						<time>2022-11-01T21:54:20Z</time>
					</trkpt>
					<trkpt lat="45.700970" lon="4.564460">
						<ele>880</ele>
						<time>2022-11-01T21:55:27Z</time>
					</trkpt>
					<trkpt lat="45.700650" lon="4.564560">
						<ele>881</ele>
						<time>2022-11-01T21:56:11Z</time>
					</trkpt>
					<trkpt lat="45.700480" lon="4.564650">
						<ele>882</ele>
						<time>2022-11-01T21:56:35Z</time>
					</trkpt>
					<trkpt lat="45.700360" lon="4.564770">
						<ele>883</ele>
						<time>2022-11-01T21:56:54Z</time>
					</trkpt>
					<trkpt lat="45.699880" lon="4.564830">
						<ele>884</ele>
						<time>2022-11-01T21:57:59Z</time>
					</trkpt>
					<trkpt lat="45.699810" lon="4.564830">
						<ele>884</ele>
						<time>2022-11-01T21:58:08Z</time>
					</trkpt>
					<trkpt lat="45.699530" lon="4.564710">
						<ele>881</ele>
						<time>2022-11-01T21:58:47Z</time>
					</trkpt>
					<trkpt lat="45.699320" lon="4.564680">
						<ele>879</ele>
						<time>2022-11-01T21:59:15Z</time>
					</trkpt>
					<trkpt lat="45.699110" lon="4.564680">
						<ele>877</ele>
						<time>2022-11-01T21:59:43Z</time>
					</trkpt>
					<trkpt lat="45.698870" lon="4.564720">
						<ele>876</ele>
						<time>2022-11-01T22:00:15Z</time>
					</trkpt>
					<trkpt lat="45.698330" lon="4.564730">
						<ele>873</ele>
						<time>2022-11-01T22:01:27Z</time>
					</trkpt>
					<trkpt lat="45.697570" lon="4.564580">
						<ele>874</ele>
						<time>2022-11-01T22:03:10Z</time>
					</trkpt>
					<trkpt lat="45.697060" lon="4.564390">
						<ele>872</ele>
						<time>2022-11-01T22:04:20Z</time>
					</trkpt>
					<trkpt lat="45.696790" lon="4.564350">
						<ele>872</ele>
						<time>2022-11-01T22:04:56Z</time>
					</trkpt>
					<trkpt lat="45.696540" lon="4.564350">
						<ele>872</ele>
						<time>2022-11-01T22:05:30Z</time>
					</trkpt>
					<trkpt lat="45.696290" lon="4.564410">
						<ele>872</ele>
						<time>2022-11-01T22:06:04Z</time>
					</trkpt>
					<trkpt lat="45.695760" lon="4.564480">
						<ele>871</ele>
						<time>2022-11-01T22:07:15Z</time>
					</trkpt>
					<trkpt lat="45.695350" lon="4.564600">
						<ele>867</ele>
						<time>2022-11-01T22:08:10Z</time>
					</trkpt>
					<trkpt lat="45.694550" lon="4.565090">
						<ele>859</ele>
						<time>2022-11-01T22:10:07Z</time>
					</trkpt>
					<trkpt lat="45.694130" lon="4.565380">
						<ele>852</ele>
						<time>2022-11-01T22:11:09Z</time>
					</trkpt>
					<trkpt lat="45.693970" lon="4.565420">
						<ele>851</ele>
						<time>2022-11-01T22:11:30Z</time>
					</trkpt>
					<trkpt lat="45.693660" lon="4.565440">
						<ele>849</ele>
						<time>2022-11-01T22:12:12Z</time>
					</trkpt>
					<trkpt lat="45.693280" lon="4.565620">
						<ele>847</ele>
						<time>2022-11-01T22:13:05Z</time>
					</trkpt>
					<trkpt lat="45.692950" lon="4.565670">
						<ele>843</ele>
						<time>2022-11-01T22:13:50Z</time>
					</trkpt>
					<trkpt lat="45.692750" lon="4.565780">
						<ele>841</ele>
						<time>2022-11-01T22:14:18Z</time>
					</trkpt>
					<trkpt lat="45.692440" lon="4.566120">
						<ele>836</ele>
						<time>2022-11-01T22:15:10Z</time>
					</trkpt>
					<trkpt lat="45.692300" lon="4.566330">
						<ele>834</ele>
						<time>2022-11-01T22:15:37Z</time>
					</trkpt>
					<trkpt lat="45.692060" lon="4.566540">
						<ele>830</ele>
						<time>2022-11-01T22:16:15Z</time>
					</trkpt>
					<trkpt lat="45.692000" lon="4.566620">
						<ele>829</ele>
						<time>2022-11-01T22:16:26Z</time>
					</trkpt>
					<trkpt lat="45.691820" lon="4.567100">
						<ele>822</ele>
						<time>2022-11-01T22:17:17Z</time>
					</trkpt>
					<trkpt lat="45.691640" lon="4.567350">
						<ele>819</ele>
						<time>2022-11-01T22:17:50Z</time>
					</trkpt>
					<trkpt lat="45.691540" lon="4.567430">
						<ele>818</ele>
						<time>2022-11-01T22:18:05Z</time>
					</trkpt>
					<trkpt lat="45.691340" lon="4.567460">
						<ele>816</ele>
						<time>2022-11-01T22:18:32Z</time>
					</trkpt>
					<trkpt lat="45.691300" lon="4.567540">
						<ele>815</ele>
						<time>2022-11-01T22:18:41Z</time>
					</trkpt>
					<trkpt lat="45.691060" lon="4.567780">
						<ele>812</ele>
						<time>2022-11-01T22:19:20Z</time>
					</trkpt>
					<trkpt lat="45.690760" lon="4.568130">
						<ele>811</ele>
						<time>2022-11-01T22:20:12Z</time>
					</trkpt>
					<trkpt lat="45.690510" lon="4.568460">
						<ele>811</ele>
						<time>2022-11-01T22:20:57Z</time>
					</trkpt>
					<trkpt lat="45.690400" lon="4.568660">
						<ele>811</ele>
						<time>2022-11-01T22:21:21Z</time>
					</trkpt>
					<trkpt lat="45.690170" lon="4.569500">
						<ele>812</ele>
						<time>2022-11-01T22:22:45Z</time>
					</trkpt>
					<trkpt lat="45.690020" lon="4.569790">
						<ele>813</ele>
						<time>2022-11-01T22:23:19Z</time>
					</trkpt>
					<trkpt lat="45.689900" lon="4.569920">
						<ele>813</ele>
						<time>2022-11-01T22:23:39Z</time>
					</trkpt>
					<trkpt lat="45.689120" lon="4.570520">
						<ele>807</ele>
						<time>2022-11-01T22:25:37Z</time>
					</trkpt>
					<trkpt lat="45.689000" lon="4.570650">
						<ele>805</ele>
						<time>2022-11-01T22:25:57Z</time>
					</trkpt>
					<trkpt lat="45.688880" lon="4.570960">
						<ele>802</ele>
						<time>2022-11-01T22:26:30Z</time>
					</trkpt>
					<trkpt lat="45.688680" lon="4.571810">
						<ele>797</ele>
						<time>2022-11-01T22:27:54Z</time>
					</trkpt>
					<trkpt lat="45.688310" lon="4.572690">
						<ele>790</ele>
						<time>2022-11-01T22:29:30Z</time>
					</trkpt>
					<trkpt lat="45.687840" lon="4.573430">
						<ele>785</ele>
						<time>2022-11-01T22:31:03Z</time>
					</trkpt>
					<trkpt lat="45.686870" lon="4.575090">
						<ele>774</ele>
						<time>2022-11-01T22:34:25Z</time>
					</trkpt>
					<trkpt lat="45.686590" lon="4.575500">
						<ele>772</ele>
						<time>2022-11-01T22:35:18Z</time>
					</trkpt>
					<trkpt lat="45.686260" lon="4.575890">
						<ele>770</ele>
						<time>2022-11-01T22:36:15Z</time>
					</trkpt>
					<trkpt lat="45.685970" lon="4.576490">
						<ele>769</ele>
						<time>2022-11-01T22:37:23Z</time>
					</trkpt>
					<trkpt lat="45.685930" lon="4.576520">
						<ele>769</ele>
						<time>2022-11-01T22:37:29Z</time>
					</trkpt>
					<trkpt lat="45.685850" lon="4.576690">
						<ele>769</ele>
						<time>2022-11-01T22:37:48Z</time>
					</trkpt>
					<trkpt lat="45.685740" lon="4.577020">
						<ele>770</ele>
						<time>2022-11-01T22:38:22Z</time>
					</trkpt>
					<trkpt lat="45.685630" lon="4.577540">
						<ele>771</ele>
						<time>2022-11-01T22:39:13Z</time>
					</trkpt>
					<trkpt lat="45.685610" lon="4.577960">
						<ele>771</ele>
						<time>2022-11-01T22:39:52Z</time>
					</trkpt>
					<trkpt lat="45.685460" lon="4.578310">
						<ele>774</ele>
						<time>2022-11-01T22:40:31Z</time>
					</trkpt>
					<trkpt lat="45.685430" lon="4.578490">
						<ele>774</ele>
						<time>2022-11-01T22:40:48Z</time>
					</trkpt>
					<trkpt lat="45.685500" lon="4.578860">
						<ele>773</ele>
						<time>2022-11-01T22:41:24Z</time>
					</trkpt>
					<trkpt lat="45.685540" lon="4.579340">
						<ele>772</ele>
						<time>2022-11-01T22:42:09Z</time>
					</trkpt>
					<trkpt lat="45.685490" lon="4.579970">
						<ele>771</ele>
						<time>2022-11-01T22:43:08Z</time>
					</trkpt>
					<trkpt lat="45.685120" lon="4.581730">
						<ele>770</ele>
						<time>2022-11-01T22:45:59Z</time>
					</trkpt>
					<trkpt lat="45.685000" lon="4.582150">
						<ele>770</ele>
						<time>2022-11-01T22:46:41Z</time>
					</trkpt>
					<trkpt lat="45.684880" lon="4.582390">
						<ele>770</ele>
						<time>2022-11-01T22:47:09Z</time>
					</trkpt>
					<trkpt lat="45.684760" lon="4.582540">
						<ele>769</ele>
						<time>2022-11-01T22:47:30Z</time>
					</trkpt>
					<trkpt lat="45.684370" lon="4.582920">
						<ele>763</ele>
						<time>2022-11-01T22:48:33Z</time>
					</trkpt>
					<trkpt lat="45.684010" lon="4.583100">
						<ele>758</ele>
						<time>2022-11-01T22:49:24Z</time>
					</trkpt>
					<trkpt lat="45.683950" lon="4.583150">
						<ele>758</ele>
						<time>2022-11-01T22:49:33Z</time>
					</trkpt>
					<trkpt lat="45.683760" lon="4.583420">
						<ele>755</ele>
						<time>2022-11-01T22:50:09Z</time>
					</trkpt>
					<trkpt lat="45.683530" lon="4.583630">
						<ele>754</ele>
						<time>2022-11-01T22:50:45Z</time>
					</trkpt>
					<trkpt lat="45.682310" lon="4.583290">
						<ele>735</ele>
						<time>2022-11-01T22:53:31Z</time>
					</trkpt>
					<trkpt lat="45.682150" lon="4.582880">
						<ele>736</ele>
						<time>2022-11-01T22:54:15Z</time>
					</trkpt>
					<trkpt lat="45.681500" lon="4.581800">
						<ele>736</ele>
						<time>2022-11-01T22:56:28Z</time>
					</trkpt>
					<trkpt lat="45.681050" lon="4.581110">
						<ele>738</ele>
						<time>2022-11-01T22:57:56Z</time>
					</trkpt>
					<trkpt lat="45.680640" lon="4.580690">
						<ele>736</ele>
						<time>2022-11-01T22:59:03Z</time>
					</trkpt>
					<trkpt lat="45.680160" lon="4.580290">
						<ele>737</ele>
						<time>2022-11-01T23:00:17Z</time>
					</trkpt>
					<trkpt lat="45.680100" lon="4.580120">
						<ele>741</ele>
						<time>2022-11-01T23:00:35Z</time>
					</trkpt>
					<trkpt lat="45.679980" lon="4.580090">
						<ele>739</ele>
						<time>2022-11-01T23:00:51Z</time>
					</trkpt>
					<trkpt lat="45.679670" lon="4.579900">
						<ele>744</ele>
						<time>2022-11-01T23:01:36Z</time>
					</trkpt>
					<trkpt lat="45.679220" lon="4.579780">
						<ele>746</ele>
						<time>2022-11-01T23:02:37Z</time>
					</trkpt>
					<trkpt lat="45.679080" lon="4.579780">
						<ele>746</ele>
						<time>2022-11-01T23:02:56Z</time>
					</trkpt>
					<trkpt lat="45.678810" lon="4.579850">
						<ele>744</ele>
						<time>2022-11-01T23:03:33Z</time>
					</trkpt>
					<trkpt lat="45.678350" lon="4.579820">
						<ele>746</ele>
						<time>2022-11-01T23:04:34Z</time>
					</trkpt>
					<trkpt lat="45.678020" lon="4.579880">
						<ele>744</ele>
						<time>2022-11-01T23:05:19Z</time>
					</trkpt>
					<trkpt lat="45.677920" lon="4.579870">
						<ele>745</ele>
						<time>2022-11-01T23:05:32Z</time>
					</trkpt>
					<trkpt lat="45.677520" lon="4.579700">
						<ele>751</ele>
						<time>2022-11-01T23:06:28Z</time>
					</trkpt>
					<trkpt lat="45.677010" lon="4.579400">
						<ele>757</ele>
						<time>2022-11-01T23:07:41Z</time>
					</trkpt>
					<trkpt lat="45.676870" lon="4.579280">
						<ele>760</ele>
						<time>2022-11-01T23:08:03Z</time>
					</trkpt>
					<trkpt lat="45.676640" lon="4.578950">
						<ele>764</ele>
						<time>2022-11-01T23:08:47Z</time>
					</trkpt>
					<trkpt lat="45.676430" lon="4.578740">
						<ele>766</ele>
						<time>2022-11-01T23:09:21Z</time>
					</trkpt>
					<trkpt lat="45.676380" lon="4.578660">
						<ele>767</ele>
						<time>2022-11-01T23:09:31Z</time>
					</trkpt>
					<trkpt lat="45.676250" lon="4.578250">
						<ele>772</ele>
						<time>2022-11-01T23:10:13Z</time>
					</trkpt>
					<trkpt lat="45.676070" lon="4.577260">
						<ele>772</ele>
						<time>2022-11-01T23:11:48Z</time>
					</trkpt>
					<trkpt lat="45.675990" lon="4.576950">
						<ele>771</ele>
						<time>2022-11-01T23:12:19Z</time>
					</trkpt>
					<trkpt lat="45.675660" lon="4.576070">
						<ele>763</ele>
						<time>2022-11-01T23:13:52Z</time>
					</trkpt>
					<trkpt lat="45.675400" lon="4.575540">
						<ele>759</ele>
						<time>2022-11-01T23:14:52Z</time>
					</trkpt>
					<trkpt lat="45.675270" lon="4.575370">
						<ele>758</ele>
						<time>2022-11-01T23:15:16Z</time>
					</trkpt>
					<trkpt lat="45.674880" lon="4.575020">
						<ele>753</ele>
						<time>2022-11-01T23:16:17Z</time>
					</trkpt>
					<trkpt lat="45.674110" lon="4.574170">
						<ele>731</ele>
						<time>2022-11-01T23:18:27Z</time>
					</trkpt>
					<trkpt lat="45.673990" lon="4.574090">
						<ele>727</ele>
						<time>2022-11-01T23:18:45Z</time>
					</trkpt>
					<trkpt lat="45.673560" lon="4.573620">
						<ele>713</ele>
						<time>2022-11-01T23:19:57Z</time>
					</trkpt>
					<trkpt lat="45.673150" lon="4.573260">
						<ele>704</ele>
						<time>2022-11-01T23:21:01Z</time>
					</trkpt>
					<trkpt lat="45.673110" lon="4.573130">
						<ele>702</ele>
						<time>2022-11-01T23:21:14Z</time>
					</trkpt>
					<trkpt lat="45.672980" lon="4.573000">
						<ele>700</ele>
						<time>2022-11-01T23:21:36Z</time>
					</trkpt>
					<trkpt lat="45.672730" lon="4.572790">
						<ele>695</ele>
						<time>2022-11-01T23:22:14Z</time>
					</trkpt>
					<trkpt lat="45.672050" lon="4.572360">
						<ele>685</ele>
						<time>2022-11-01T23:23:53Z</time>
					</trkpt>
					<trkpt lat="45.671990" lon="4.572310">
						<ele>685</ele>
						<time>2022-11-01T23:24:03Z</time>
					</trkpt>
					<trkpt lat="45.671860" lon="4.572120">
						<ele>684</ele>
						<time>2022-11-01T23:24:27Z</time>
					</trkpt>
					<trkpt lat="45.671780" lon="4.572110">
						<ele>684</ele>
						<time>2022-11-01T23:24:38Z</time>
					</trkpt>
					<trkpt lat="45.671520" lon="4.572330">
						<ele>682</ele>
						<time>2022-11-01T23:25:19Z</time>
					</trkpt>
					<trkpt lat="45.671370" lon="4.572380">
						<ele>683</ele>
						<time>2022-11-01T23:25:39Z</time>
					</trkpt>
					<trkpt lat="45.671110" lon="4.572410">
						<ele>685</ele>
						<time>2022-11-01T23:26:14Z</time>
					</trkpt>
					<trkpt lat="45.670120" lon="4.572640">
						<ele>699</ele>
						<time>2022-11-01T23:28:28Z</time>
					</trkpt>
					<trkpt lat="45.669960" lon="4.572710">
						<ele>701</ele>
						<time>2022-11-01T23:28:50Z</time>
					</trkpt>
					<trkpt lat="45.669760" lon="4.572540">
						<ele>708</ele>
						<time>2022-11-01T23:29:21Z</time>
					</trkpt>
					<trkpt lat="45.669710" lon="4.572460">
						<ele>710</ele>
						<time>2022-11-01T23:29:31Z</time>
					</trkpt>
					<trkpt lat="45.669700" lon="4.572300">
						<ele>711</ele>
						<time>2022-11-01T23:29:46Z</time>
					</trkpt>
					<trkpt lat="45.669770" lon="4.571670">
						<ele>711</ele>
						<time>2022-11-01T23:30:46Z</time>
					</trkpt>
					<trkpt lat="45.669580" lon="4.571630">
						<ele>716</ele>
						<time>2022-11-01T23:31:11Z</time>
					</trkpt>
					<trkpt lat="45.669490" lon="4.571690">
						<ele>718</ele>
						<time>2022-11-01T23:31:24Z</time>
					</trkpt>
					<trkpt lat="45.669390" lon="4.571830">
						<ele>721</ele>
						<time>2022-11-01T23:31:43Z</time>
					</trkpt>
					<trkpt lat="45.669210" lon="4.572290">
						<ele>724</ele>
						<time>2022-11-01T23:32:32Z</time>
					</trkpt>
					<trkpt lat="45.669160" lon="4.572290">
						<ele>725</ele>
						<time>2022-11-01T23:32:39Z</time>
					</trkpt>
					<trkpt lat="45.669020" lon="4.573060">
						<ele>717</ele>
						<time>2022-11-01T23:33:53Z</time>
					</trkpt>
					<trkpt lat="45.668980" lon="4.573090">
						<ele>717</ele>
						<time>2022-11-01T23:33:59Z</time>
					</trkpt>
					<trkpt lat="45.668910" lon="4.573100">
						<ele>718</ele>
						<time>2022-11-01T23:34:09Z</time>
					</trkpt>
					<trkpt lat="45.668820" lon="4.573070">
						<ele>719</ele>
						<time>2022-11-01T23:34:21Z</time>
					</trkpt>
					<trkpt lat="45.668650" lon="4.572930">
						<ele>722</ele>
						<time>2022-11-01T23:34:47Z</time>
					</trkpt>
					<trkpt lat="45.668430" lon="4.572840">
						<ele>725</ele>
						<time>2022-11-01T23:35:18Z</time>
					</trkpt>
					<trkpt lat="45.668270" lon="4.572910">
						<ele>725</ele>
						<time>2022-11-01T23:35:40Z</time>
					</trkpt>
					<trkpt lat="45.668040" lon="4.572930">
						<ele>724</ele>
						<time>2022-11-01T23:36:11Z</time>
					</trkpt>
					<trkpt lat="45.667720" lon="4.573120">
						<ele>718</ele>
						<time>2022-11-01T23:36:57Z</time>
					</trkpt>
					<trkpt lat="45.667100" lon="4.573040">
						<ele>718</ele>
						<time>2022-11-01T23:38:20Z</time>
					</trkpt>
					<trkpt lat="45.666370" lon="4.572980">
						<ele>719</ele>
						<time>2022-11-01T23:39:58Z</time>
					</trkpt>
					<trkpt lat="45.666260" lon="4.572990">
						<ele>719</ele>
						<time>2022-11-01T23:40:12Z</time>
					</trkpt>
					<trkpt lat="45.666120" lon="4.573040">
						<ele>718</ele>
						<time>2022-11-01T23:40:32Z</time>
					</trkpt>
					<trkpt lat="45.666040" lon="4.573130">
						<ele>716</ele>
						<time>2022-11-01T23:40:45Z</time>
					</trkpt>
					<trkpt lat="45.665960" lon="4.573180">
						<ele>716</ele>
						<time>2022-11-01T23:40:57Z</time>
					</trkpt>
					<trkpt lat="45.665830" lon="4.573130">
						<ele>717</ele>
						<time>2022-11-01T23:41:15Z</time>
					</trkpt>
					<trkpt lat="45.665660" lon="4.573000">
						<ele>720</ele>
						<time>2022-11-01T23:41:40Z</time>
					</trkpt>
					<trkpt lat="45.665260" lon="4.572420">
						<ele>728</ele>
						<time>2022-11-01T23:42:56Z</time>
					</trkpt>
					<trkpt lat="45.665060" lon="4.571870">
						<ele>731</ele>
						<time>2022-11-01T23:43:54Z</time>
					</trkpt>
					<trkpt lat="45.665020" lon="4.571620">
						<ele>731</ele>
						<time>2022-11-01T23:44:18Z</time>
					</trkpt>
					<trkpt lat="45.664980" lon="4.570650">
						<ele>735</ele>
						<time>2022-11-01T23:45:49Z</time>
					</trkpt>
					<trkpt lat="45.664870" lon="4.570110">
						<ele>736</ele>
						<time>2022-11-01T23:46:41Z</time>
					</trkpt>
					<trkpt lat="45.664800" lon="4.569940">
						<ele>736</ele>
						<time>2022-11-01T23:47:00Z</time>
					</trkpt>
					<trkpt lat="45.664530" lon="4.569660">
						<ele>736</ele>
						<time>2022-11-01T23:47:44Z</time>
					</trkpt>
					<trkpt lat="45.664370" lon="4.569310">
						<ele>737</ele>
						<time>2022-11-01T23:48:23Z</time>
					</trkpt>
					<trkpt lat="45.664260" lon="4.568810">
						<ele>736</ele>
						<time>2022-11-01T23:49:12Z</time>
					</trkpt>
					<trkpt lat="45.664200" lon="4.568390">
						<ele>736</ele>
						<time>2022-11-01T23:49:52Z</time>
					</trkpt>
					<trkpt lat="45.664100" lon="4.567380">
						<ele>733</ele>
						<time>2022-11-01T23:51:27Z</time>
					</trkpt>
					<trkpt lat="45.664090" lon="4.566650">
						<ele>732</ele>
						<time>2022-11-01T23:52:35Z</time>
					</trkpt>
					<trkpt lat="45.663830" lon="4.565820">
						<ele>731</ele>
						<time>2022-11-01T23:54:00Z</time>
					</trkpt>
					<trkpt lat="45.663550" lon="4.565170">
						<ele>733</ele>
						<time>2022-11-01T23:55:11Z</time>
					</trkpt>
					<trkpt lat="45.663250" lon="4.564050">
						<ele>735</ele>
						<time>2022-11-01T23:57:03Z</time>
					</trkpt>
					<trkpt lat="45.663000" lon="4.563430">
						<ele>736</ele>
						<time>2022-11-01T23:58:10Z</time>
					</trkpt>
					<trkpt lat="45.662970" lon="4.563320">
						<ele>736</ele>
						<time>2022-11-01T23:58:21Z</time>
					</trkpt>
					<trkpt lat="45.662970" lon="4.563000">
						<ele>736</ele>
						<time>2022-11-01T23:58:51Z</time>
					</trkpt>
					<trkpt lat="45.662930" lon="4.562920">
						<ele>736</ele>
						<time>2022-11-01T23:59:00Z</time>
					</trkpt>
					<trkpt lat="45.661620" lon="4.563140">
						<ele>733</ele>
						<time>2022-11-02T00:01:56Z</time>
					</trkpt>
					<trkpt lat="45.660910" lon="4.563420">
						<ele>734</ele>
						<time>2022-11-02T00:03:34Z</time>
					</trkpt>
					<trkpt lat="45.660780" lon="4.562010">
						<ele>735</ele>
						<time>2022-11-02T00:05:47Z</time>
					</trkpt>
					<trkpt lat="45.660350" lon="4.562090">
						<ele>732</ele>
						<time>2022-11-02T00:06:45Z</time>
					</trkpt>
					<trkpt lat="45.660360" lon="4.561620">
						<ele>732</ele>
						<time>2022-11-02T00:07:29Z</time>
					</trkpt>
					<trkpt lat="45.660350" lon="4.561550">
						<ele>732</ele>
						<time>2022-11-02T00:07:35Z</time>
					</trkpt>
					<trkpt lat="45.660300" lon="4.561480">
						<ele>732</ele>
						<time>2022-11-02T00:07:45Z</time>
					</trkpt>
					<trkpt lat="45.660280" lon="4.561070">
						<ele>733</ele>
						<time>2022-11-02T00:08:23Z</time>
					</trkpt>
					<trkpt lat="45.660180" lon="4.560810">
						<ele>733</ele>
						<time>2022-11-02T00:08:51Z</time>
					</trkpt>
					<trkpt lat="45.660190" lon="4.560440">
						<ele>733</ele>
						<time>2022-11-02T00:09:25Z</time>
					</trkpt>
					<trkpt lat="45.660060" lon="4.560430">
						<ele>733</ele>
						<time>2022-11-02T00:09:43Z</time>
					</trkpt>
					<trkpt lat="45.660130" lon="4.560140">
						<ele>733</ele>
						<time>2022-11-02T00:10:11Z</time>
					</trkpt>
					<trkpt lat="45.660060" lon="4.560020">
						<ele>734</ele>
						<time>2022-11-02T00:10:26Z</time>
					</trkpt>
					<trkpt lat="45.659910" lon="4.559960">
						<ele>733</ele>
						<time>2022-11-02T00:10:46Z</time>
					</trkpt>
					<trkpt lat="45.659420" lon="4.562110">
						<ele>727</ele>
						<time>2022-11-02T00:14:17Z</time>
					</trkpt>
					<trkpt lat="45.658950" lon="4.563750">
						<ele>727</ele>
						<time>2022-11-02T00:17:03Z</time>
					</trkpt>
					<trkpt lat="45.658920" lon="4.563920">
						<ele>727</ele>
						<time>2022-11-02T00:17:19Z</time>
					</trkpt>
					<trkpt lat="45.658830" lon="4.563920">
						<ele>727</ele>
						<time>2022-11-02T00:17:31Z</time>
					</trkpt>
					<trkpt lat="45.658790" lon="4.563970">
						<ele>727</ele>
						<time>2022-11-02T00:17:38Z</time>
					</trkpt>
					<trkpt lat="45.658790" lon="4.564110">
						<ele>727</ele>
						<time>2022-11-02T00:17:51Z</time>
					</trkpt>
					<trkpt lat="45.658840" lon="4.564160">
						<ele>727</ele>
						<time>2022-11-02T00:17:59Z</time>
					</trkpt>
					<trkpt lat="45.658710" lon="4.564590">
						<ele>727</ele>
						<time>2022-11-02T00:18:43Z</time>
					</trkpt>
					<trkpt lat="45.658520" lon="4.564600">
						<ele>727</ele>
						<time>2022-11-02T00:19:08Z</time>
					</trkpt>
					<trkpt lat="45.657680" lon="4.564900">
						<ele>730</ele>
						<time>2022-11-02T00:21:04Z</time>
					</trkpt>
					<trkpt lat="45.657510" lon="4.564990">
						<ele>731</ele>
						<time>2022-11-02T00:21:28Z</time>
					</trkpt>
					<trkpt lat="45.656880" lon="4.565460">
						<ele>737</ele>
						<time>2022-11-02T00:23:03Z</time>
					</trkpt>
					<trkpt lat="45.656570" lon="4.565060">
						<ele>741</ele>
						<time>2022-11-02T00:23:59Z</time>
					</trkpt>
					<trkpt lat="45.656290" lon="4.564840">
						<ele>745</ele>
						<time>2022-11-02T00:24:41Z</time>
					</trkpt>
					<trkpt lat="45.656100" lon="4.564820">
						<ele>748</ele>
						<time>2022-11-02T00:25:07Z</time>
					</trkpt>
					<trkpt lat="45.656000" lon="4.564850">
						<ele>750</ele>
						<time>2022-11-02T00:25:20Z</time>
					</trkpt>
					<trkpt lat="45.655920" lon="4.564910">
						<ele>751</ele>
						<time>2022-11-02T00:25:32Z</time>
					</trkpt>
					<trkpt lat="45.655860" lon="4.565000">
						<ele>753</ele>
						<time>2022-11-02T00:25:44Z</time>
					</trkpt>
					<trkpt lat="45.655820" lon="4.565150">
						<ele>754</ele>
						<time>2022-11-02T00:25:59Z</time>
					</trkpt>
					<trkpt lat="45.655580" lon="4.564670">
						<ele>755</ele>
						<time>2022-11-02T00:26:54Z</time>
					</trkpt>
					<trkpt lat="45.655510" lon="4.564720">
						<ele>756</ele>
						<time>2022-11-02T00:27:04Z</time>
					</trkpt>
					<trkpt lat="45.655450" lon="4.564820">
						<ele>757</ele>
						<time>2022-11-02T00:27:17Z</time>
					</trkpt>
					<trkpt lat="45.655410" lon="4.565340">
						<ele>761</ele>
						<time>2022-11-02T00:28:06Z</time>
					</trkpt>
					<trkpt lat="45.655380" lon="4.565440">
						<ele>762</ele>
						<time>2022-11-02T00:28:16Z</time>
					</trkpt>
					<trkpt lat="45.655360" lon="4.565460">
						<ele>762</ele>
						<time>2022-11-02T00:28:19Z</time>
					</trkpt>
					<trkpt lat="45.655270" lon="4.565400">
						<ele>764</ele>
						<time>2022-11-02T00:28:32Z</time>
					</trkpt>
					<trkpt lat="45.655180" lon="4.565400">
						<ele>765</ele>
						<time>2022-11-02T00:28:44Z</time>
					</trkpt>
					<trkpt lat="45.655020" lon="4.565470">
						<ele>768</ele>
						<time>2022-11-02T00:29:07Z</time>
					</trkpt>
					<trkpt lat="45.654960" lon="4.565760">
						<ele>771</ele>
						<time>2022-11-02T00:29:35Z</time>
					</trkpt>
					<trkpt lat="45.654920" lon="4.565860">
						<ele>772</ele>
						<time>2022-11-02T00:29:46Z</time>
					</trkpt>
					<trkpt lat="45.654850" lon="4.565940">
						<ele>773</ele>
						<time>2022-11-02T00:29:57Z</time>
					</trkpt>
					<trkpt lat="45.654400" lon="4.565940">
						<ele>779</ele>
						<time>2022-11-02T00:30:58Z</time>
					</trkpt>
					<trkpt lat="45.654210" lon="4.565980">
						<ele>782</ele>
						<time>2022-11-02T00:31:23Z</time>
					</trkpt>
					<trkpt lat="45.653880" lon="4.566300">
						<ele>783</ele>
						<time>2022-11-02T00:32:16Z</time>
					</trkpt>
					<trkpt lat="45.653740" lon="4.566390">
						<ele>783</ele>
						<time>2022-11-02T00:32:37Z</time>
					</trkpt>
					<trkpt lat="45.653510" lon="4.566450">
						<ele>784</ele>
						<time>2022-11-02T00:33:08Z</time>
					</trkpt>
					<trkpt lat="45.653380" lon="4.566420">
						<ele>785</ele>
						<time>2022-11-02T00:33:26Z</time>
					</trkpt>
					<trkpt lat="45.653190" lon="4.566430">
						<ele>784</ele>
						<time>2022-11-02T00:33:51Z</time>
					</trkpt>
					<trkpt lat="45.651950" lon="4.566650">
						<ele>788</ele>
						<time>2022-11-02T00:36:38Z</time>
					</trkpt>
					<trkpt lat="45.651330" lon="4.566620">
						<ele>793</ele>
						<time>2022-11-02T00:38:01Z</time>
					</trkpt>
					<trkpt lat="45.650960" lon="4.566960">
						<ele>796</ele>
						<time>2022-11-02T00:38:59Z</time>
					</trkpt>
					<trkpt lat="45.649970" lon="4.568070">
						<ele>800</ele>
						<time>2022-11-02T00:41:47Z</time>
					</trkpt>
					<trkpt lat="45.649610" lon="4.568640">
						<ele>801</ele>
						<time>2022-11-02T00:42:59Z</time>
					</trkpt>
					<trkpt lat="45.648950" lon="4.569900">
						<ele>804</ele>
						<time>2022-11-02T00:45:26Z</time>
					</trkpt>
					<trkpt lat="45.648510" lon="4.570430">
						<ele>804</ele>
						<time>2022-11-02T00:46:42Z</time>
					</trkpt>
					<trkpt lat="45.647990" lon="4.571220">
						<ele>807</ele>
						<time>2022-11-02T00:48:24Z</time>
					</trkpt>
					<trkpt lat="45.647610" lon="4.571600">
						<ele>808</ele>
						<time>2022-11-02T00:49:25Z</time>
					</trkpt>
					<trkpt lat="45.647440" lon="4.571740">
						<ele>808</ele>
						<time>2022-11-02T00:49:52Z</time>
					</trkpt>
					<trkpt lat="45.646210" lon="4.572600">
						<ele>808</ele>
						<time>2022-11-02T00:52:54Z</time>
					</trkpt>
					<trkpt lat="45.644800" lon="4.573700">
						<ele>800</ele>
						<time>2022-11-02T00:56:29Z</time>
					</trkpt>
					<trkpt lat="45.644620" lon="4.573810">
						<ele>798</ele>
						<time>2022-11-02T00:56:55Z</time>
					</trkpt>
					<trkpt lat="45.644480" lon="4.573850">
						<ele>797</ele>
						<time>2022-11-02T00:57:14Z</time>
					</trkpt>
					<trkpt lat="45.644340" lon="4.573840">
						<ele>795</ele>
						<time>2022-11-02T00:57:33Z</time>
					</trkpt>
					<trkpt lat="45.643920" lon="4.573710">
						<ele>791</ele>
						<time>2022-11-02T00:58:30Z</time>
					</trkpt>
					<trkpt lat="45.643790" lon="4.573790">
						<ele>790</ele>
						<time>2022-11-02T00:58:49Z</time>
					</trkpt>
					<trkpt lat="45.643510" lon="4.574130">
						<ele>785</ele>
						<time>2022-11-02T00:59:38Z</time>
					</trkpt>
					<trkpt lat="45.642820" lon="4.574300">
						<ele>781</ele>
						<time>2022-11-02T01:01:11Z</time>
					</trkpt>
					<trkpt lat="45.642960" lon="4.574610">
						<ele>786</ele>
						<time>2022-11-02T01:01:46Z</time>
					</trkpt>
					<trkpt lat="45.643310" lon="4.575260">
						<ele>790</ele>
						<time>2022-11-02T01:03:02Z</time>
					</trkpt>
					<trkpt lat="45.643430" lon="4.575740">
						<ele>794</ele>
						<time>2022-11-02T01:03:50Z</time>
					</trkpt>
					<trkpt lat="45.643430" lon="4.576020">
						<ele>796</ele>
						<time>2022-11-02T01:04:16Z</time>
					</trkpt>
					<trkpt lat="45.643220" lon="4.577620">
						<ele>806</ele>
						<time>2022-11-02T01:06:48Z</time>
					</trkpt>
					<trkpt lat="45.643350" lon="4.579420">
						<ele>818</ele>
						<time>2022-11-02T01:09:37Z</time>
					</trkpt>
					<trkpt lat="45.643330" lon="4.579540">
						<ele>819</ele>
						<time>2022-11-02T01:09:48Z</time>
					</trkpt>
					<trkpt lat="45.643270" lon="4.579610">
						<ele>820</ele>
						<time>2022-11-02T01:09:58Z</time>
					</trkpt>
					<trkpt lat="45.642580" lon="4.579740">
						<ele>833</ele>
						<time>2022-11-02T01:11:31Z</time>
					</trkpt>
					<trkpt lat="45.642450" lon="4.579910">
						<ele>837</ele>
						<time>2022-11-02T01:11:55Z</time>
					</trkpt>
					<trkpt lat="45.642470" lon="4.580060">
						<ele>838</ele>
						<time>2022-11-02T01:12:09Z</time>
					</trkpt>
					<trkpt lat="45.642310" lon="4.580200">
						<ele>841</ele>
						<time>2022-11-02T01:12:34Z</time>
					</trkpt>
					<trkpt lat="45.642220" lon="4.580360">
						<ele>843</ele>
						<time>2022-11-02T01:12:53Z</time>
					</trkpt>
					<trkpt lat="45.642180" lon="4.580490">
						<ele>844</ele>
						<time>2022-11-02T01:13:06Z</time>
					</trkpt>
					<trkpt lat="45.642210" lon="4.580900">
						<ele>846</ele>
						<time>2022-11-02T01:13:45Z</time>
					</trkpt>
					<trkpt lat="45.642200" lon="4.581060">
						<ele>847</ele>
						<time>2022-11-02T01:14:00Z</time>
					</trkpt>
					<trkpt lat="45.642090" lon="4.581500">
						<ele>851</ele>
						<time>2022-11-02T01:14:44Z</time>
					</trkpt>
					<trkpt lat="45.642090" lon="4.581750">
						<ele>851</ele>
						<time>2022-11-02T01:15:07Z</time>
					</trkpt>
					<trkpt lat="45.641970" lon="4.582360">
						<ele>855</ele>
						<time>2022-11-02T01:16:06Z</time>
					</trkpt>
					<trkpt lat="45.641940" lon="4.582760">
						<ele>854</ele>
						<time>2022-11-02T01:16:43Z</time>
					</trkpt>
					<trkpt lat="45.641590" lon="4.584170">
						<ele>857</ele>
						<time>2022-11-02T01:19:03Z</time>
					</trkpt>
					<trkpt lat="45.641590" lon="4.584310">
						<ele>856</ele>
						<time>2022-11-02T01:19:16Z</time>
					</trkpt>
					<trkpt lat="45.641660" lon="4.584480">
						<ele>853</ele>
						<time>2022-11-02T01:19:35Z</time>
					</trkpt>
					<trkpt lat="45.641930" lon="4.584960">
						<ele>847</ele>
						<time>2022-11-02T01:20:32Z</time>
					</trkpt>
					<trkpt lat="45.642110" lon="4.585400">
						<ele>845</ele>
						<time>2022-11-02T01:21:20Z</time>
					</trkpt>
					<trkpt lat="45.642050" lon="4.586130">
						<ele>849</ele>
						<time>2022-11-02T01:22:28Z</time>
					</trkpt>
					<trkpt lat="45.642100" lon="4.586340">
						<ele>849</ele>
						<time>2022-11-02T01:22:49Z</time>
					</trkpt>
					<trkpt lat="45.642240" lon="4.586630">
						<ele>848</ele>
						<time>2022-11-02T01:23:22Z</time>
					</trkpt>
					<trkpt lat="45.642430" lon="4.586820">
						<ele>846</ele>
						<time>2022-11-02T01:23:53Z</time>
					</trkpt>
					<trkpt lat="45.642480" lon="4.586890">
						<ele>845</ele>
						<time>2022-11-02T01:24:02Z</time>
					</trkpt>
					<trkpt lat="45.642500" lon="4.586980">
						<ele>846</ele>
						<time>2022-11-02T01:24:11Z</time>
					</trkpt>
					<trkpt lat="45.642430" lon="4.587380">
						<ele>848</ele>
						<time>2022-11-02T01:24:49Z</time>
					</trkpt>
					<trkpt lat="45.642240" lon="4.587620">
						<ele>852</ele>
						<time>2022-11-02T01:25:23Z</time>
					</trkpt>
					<trkpt lat="45.641040" lon="4.588130">
						<ele>870</ele>
						<time>2022-11-02T01:28:10Z</time>
					</trkpt>
					<trkpt lat="45.640800" lon="4.588000">
						<ele>873</ele>
						<time>2022-11-02T01:28:44Z</time>
					</trkpt>
					<trkpt lat="45.640580" lon="4.588530">
						<ele>879</ele>
						<time>2022-11-02T01:29:42Z</time>
					</trkpt>
					<trkpt lat="45.640470" lon="4.588820">
						<ele>882</ele>
						<time>2022-11-02T01:30:13Z</time>
					</trkpt>
					<trkpt lat="45.640500" lon="4.589440">
						<ele>885</ele>
						<time>2022-11-02T01:31:11Z</time>
					</trkpt>
					<trkpt lat="45.640400" lon="4.590150">
						<ele>889</ele>
						<time>2022-11-02T01:32:18Z</time>
					</trkpt>
					<trkpt lat="45.640330" lon="4.590360">
						<ele>891</ele>
						<time>2022-11-02T01:32:40Z</time>
					</trkpt>
					<trkpt lat="45.640170" lon="4.590610">
						<ele>895</ele>
						<time>2022-11-02T01:33:12Z</time>
					</trkpt>
					<trkpt lat="45.640070" lon="4.590880">
						<ele>898</ele>
						<time>2022-11-02T01:33:40Z</time>
					</trkpt>
					<trkpt lat="45.639900" lon="4.591180">
						<ele>902</ele>
						<time>2022-11-02T01:34:16Z</time>
					</trkpt>
					<trkpt lat="45.639780" lon="4.591260">
						<ele>905</ele>
						<time>2022-11-02T01:34:34Z</time>
					</trkpt>
					<trkpt lat="45.639610" lon="4.591430">
						<ele>908</ele>
						<time>2022-11-02T01:35:02Z</time>
					</trkpt>
					<trkpt lat="45.639470" lon="4.591620">
						<ele>911</ele>
						<time>2022-11-02T01:35:27Z</time>
					</trkpt>
					<trkpt lat="45.639830" lon="4.593260">
						<ele>918</ele>
						<time>2022-11-02T01:38:08Z</time>
					</trkpt>
					<trkpt lat="45.639700" lon="4.593640">
						<ele>921</ele>
						<time>2022-11-02T01:38:47Z</time>
					</trkpt>
					<trkpt lat="45.639580" lon="4.594100">
						<ele>924</ele>
						<time>2022-11-02T01:39:33Z</time>
					</trkpt>
					<trkpt lat="45.639450" lon="4.594150">
						<ele>925</ele>
						<time>2022-11-02T01:39:51Z</time>
					</trkpt>
					<trkpt lat="45.639270" lon="4.594160">
						<ele>926</ele>
						<time>2022-11-02T01:40:15Z</time>
					</trkpt>
					<trkpt lat="45.639060" lon="4.594380">
						<ele>925</ele>
						<time>2022-11-02T01:40:50Z</time>
					</trkpt>
					<trkpt lat="45.638970" lon="4.594510">
						<ele>923</ele>
						<time>2022-11-02T01:41:07Z</time>
					</trkpt>
					<trkpt lat="45.638750" lon="4.594560">
						<ele>922</ele>
						<time>2022-11-02T01:41:36Z</time>
					</trkpt>
					<trkpt lat="45.638110" lon="4.594540">
						<ele>919</ele>
						<time>2022-11-02T01:43:02Z</time>
					</trkpt>
					<trkpt lat="45.638040" lon="4.594500">
						<ele>919</ele>
						<time>2022-11-02T01:43:12Z</time>
					</trkpt>
					<trkpt lat="45.637590" lon="4.593850">
						<ele>924</ele>
						<time>2022-11-02T01:44:37Z</time>
					</trkpt>
					<trkpt lat="45.637250" lon="4.593500">
						<ele>920</ele>
						<time>2022-11-02T01:45:33Z</time>
					</trkpt>
					<trkpt lat="45.637160" lon="4.593180">
						<ele>918</ele>
						<time>2022-11-02T01:46:05Z</time>
					</trkpt>
					<trkpt lat="45.636890" lon="4.592690">
						<ele>909</ele>
						<time>2022-11-02T01:47:04Z</time>
					</trkpt>
					<trkpt lat="45.636840" lon="4.592230">
						<ele>905</ele>
						<time>2022-11-02T01:47:47Z</time>
					</trkpt>
					<trkpt lat="45.636720" lon="4.592070">
						<ele>901</ele>
						<time>2022-11-02T01:48:09Z</time>
					</trkpt>
					<trkpt lat="45.636600" lon="4.591790">
						<ele>896</ele>
						<time>2022-11-02T01:48:40Z</time>
					</trkpt>
					<trkpt lat="45.636560" lon="4.591760">
						<ele>895</ele>
						<time>2022-11-02T01:48:46Z</time>
					</trkpt>
					<trkpt lat="45.636370" lon="4.591900">
						<ele>891</ele>
						<time>2022-11-02T01:49:14Z</time>
					</trkpt>
					<trkpt lat="45.636230" lon="4.592110">
						<ele>889</ele>
						<time>2022-11-02T01:49:41Z</time>
					</trkpt>
					<trkpt lat="45.635790" lon="4.592540">
						<ele>882</ele>
						<time>2022-11-02T01:50:52Z</time>
					</trkpt>
					<trkpt lat="45.635660" lon="4.592740">
						<ele>878</ele>
						<time>2022-11-02T01:51:18Z</time>
					</trkpt>
					<trkpt lat="45.635580" lon="4.593040">
						<ele>875</ele>
						<time>2022-11-02T01:51:48Z</time>
					</trkpt>
					<trkpt lat="45.635380" lon="4.593580">
						<ele>867</ele>
						<time>2022-11-02T01:52:45Z</time>
					</trkpt>
					<trkpt lat="45.635080" lon="4.594190">
						<ele>856</ele>
						<time>2022-11-02T01:53:54Z</time>
					</trkpt>
					<trkpt lat="45.635050" lon="4.594600">
						<ele>856</ele>
						<time>2022-11-02T01:54:33Z</time>
					</trkpt>
					<trkpt lat="45.635120" lon="4.594770">
						<ele>857</ele>
						<time>2022-11-02T01:54:51Z</time>
					</trkpt>
					<trkpt lat="45.635150" lon="4.594920">
						<ele>857</ele>
						<time>2022-11-02T01:55:06Z</time>
					</trkpt>
					<trkpt lat="45.635240" lon="4.595690">
						<ele>859</ele>
						<time>2022-11-02T01:56:19Z</time>
					</trkpt>
					<trkpt lat="45.635270" lon="4.595770">
						<ele>860</ele>
						<time>2022-11-02T01:56:27Z</time>
					</trkpt>
					<trkpt lat="45.635550" lon="4.596130">
						<ele>862</ele>
						<time>2022-11-02T01:57:17Z</time>
					</trkpt>
					<trkpt lat="45.635610" lon="4.596250">
						<ele>862</ele>
						<time>2022-11-02T01:57:31Z</time>
					</trkpt>
					<trkpt lat="45.635770" lon="4.596760">
						<ele>861</ele>
						<time>2022-11-02T01:58:23Z</time>
					</trkpt>
					<trkpt lat="45.635280" lon="4.596750">
						<ele>864</ele>
						<time>2022-11-02T01:59:29Z</time>
					</trkpt>
					<trkpt lat="45.634860" lon="4.596590">
						<ele>864</ele>
						<time>2022-11-02T02:00:27Z</time>
					</trkpt>
					<trkpt lat="45.634410" lon="4.596560">
						<ele>866</ele>
						<time>2022-11-02T02:01:27Z</time>
					</trkpt>
					<trkpt lat="45.633740" lon="4.596650">
						<ele>869</ele>
						<time>2022-11-02T02:02:57Z</time>
					</trkpt>
					<trkpt lat="45.633390" lon="4.596650">
						<ele>870</ele>
						<time>2022-11-02T02:03:43Z</time>
					</trkpt>
					<trkpt lat="45.633100" lon="4.596680">
						<ele>870</ele>
						<time>2022-11-02T02:04:22Z</time>
					</trkpt>
					<trkpt lat="45.631860" lon="4.596970">
						<ele>872</ele>
						<time>2022-11-02T02:07:10Z</time>
					</trkpt>
					<trkpt lat="45.631320" lon="4.596920">
						<ele>870</ele>
						<time>2022-11-02T02:08:22Z</time>
					</trkpt>
					<trkpt lat="45.631250" lon="4.596890">
						<ele>870</ele>
						<time>2022-11-02T02:08:32Z</time>
					</trkpt>
					<trkpt lat="45.631190" lon="4.596830">
						<ele>869</ele>
						<time>2022-11-02T02:08:41Z</time>
					</trkpt>
					<trkpt lat="45.631030" lon="4.597120">
						<ele>869</ele>
						<time>2022-11-02T02:09:16Z</time>
					</trkpt>
					<trkpt lat="45.630850" lon="4.597610">
						<ele>869</ele>
						<time>2022-11-02T02:10:08Z</time>
					</trkpt>
					<trkpt lat="45.630470" lon="4.598270">
						<ele>862</ele>
						<time>2022-11-02T02:11:27Z</time>
					</trkpt>
					<trkpt lat="45.630370" lon="4.598490">
						<ele>860</ele>
						<time>2022-11-02T02:11:52Z</time>
					</trkpt>
					<trkpt lat="45.630180" lon="4.599390">
						<ele>854</ele>
						<time>2022-11-02T02:13:20Z</time>
					</trkpt>
					<trkpt lat="45.629970" lon="4.599990">
						<ele>847</ele>
						<time>2022-11-02T02:14:22Z</time>
					</trkpt>
					<trkpt lat="45.629880" lon="4.600180">
						<ele>846</ele>
						<time>2022-11-02T02:14:44Z</time>
					</trkpt>
					<trkpt lat="45.629860" lon="4.600300">
						<ele>845</ele>
						<time>2022-11-02T02:14:55Z</time>
					</trkpt>
					<trkpt lat="45.629790" lon="4.600370">
						<ele>845</ele>
						<time>2022-11-02T02:15:07Z</time>
					</trkpt>
					<trkpt lat="45.629720" lon="4.600400">
						<ele>844</ele>
						<time>2022-11-02T02:15:16Z</time>
					</trkpt>
					<trkpt lat="45.629560" lon="4.600420">
						<ele>843</ele>
						<time>2022-11-02T02:15:38Z</time>
					</trkpt>
					<trkpt lat="45.629540" lon="4.600340">
						<ele>843</ele>
						<time>2022-11-02T02:15:46Z</time>
					</trkpt>
					<trkpt lat="45.629290" lon="4.599990">
						<ele>840</ele>
						<time>2022-11-02T02:16:32Z</time>
					</trkpt>
					<trkpt lat="45.629020" lon="4.599930">
						<ele>838</ele>
						<time>2022-11-02T02:17:09Z</time>
					</trkpt>
					<trkpt lat="45.628050" lon="4.599890">
						<ele>831</ele>
						<time>2022-11-02T02:19:18Z</time>
					</trkpt>
					<trkpt lat="45.626160" lon="4.599930">
						<ele>823</ele>
						<time>2022-11-02T02:23:31Z</time>
					</trkpt>
					<trkpt lat="45.625970" lon="4.599970">
						<ele>824</ele>
						<time>2022-11-02T02:23:56Z</time>
					</trkpt>
					<trkpt lat="45.625760" lon="4.600060">
						<ele>825</ele>
						<time>2022-11-02T02:24:25Z</time>
					</trkpt>
					<trkpt lat="45.625520" lon="4.600120">
						<ele>825</ele>
						<time>2022-11-02T02:24:58Z</time>
					</trkpt>
					<trkpt lat="45.624960" lon="4.600380">
						<ele>827</ele>
						<time>2022-11-02T02:26:17Z</time>
					</trkpt>
					<trkpt lat="45.624840" lon="4.600410">
						<ele>826</ele>
						<time>2022-11-02T02:26:33Z</time>
					</trkpt>
					<trkpt lat="45.624570" lon="4.600380">
						<ele>825</ele>
						<time>2022-11-02T02:27:09Z</time>
					</trkpt>
					<trkpt lat="45.624420" lon="4.600320">
						<ele>824</ele>
						<time>2022-11-02T02:27:30Z</time>
					</trkpt>
					<trkpt lat="45.623820" lon="4.599620">
						<ele>823</ele>
						<time>2022-11-02T02:29:13Z</time>
					</trkpt>
					<trkpt lat="45.623510" lon="4.599310">
						<ele>826</ele>
						<time>2022-11-02T02:30:04Z</time>
					</trkpt>
					<trkpt lat="45.623390" lon="4.599140">
						<ele>827</ele>
						<time>2022-11-02T02:30:26Z</time>
					</trkpt>
					<trkpt lat="45.622950" lon="4.598350">
						<ele>831</ele>
						<time>2022-11-02T02:32:00Z</time>
					</trkpt>
					<trkpt lat="45.622300" lon="4.597340">
						<ele>839</ele>
						<time>2022-11-02T02:34:08Z</time>
					</trkpt>
					<trkpt lat="45.622240" lon="4.597200">
						<ele>840</ele>
						<time>2022-11-02T02:34:24Z</time>
					</trkpt>
					<trkpt lat="45.622230" lon="4.597090">
						<ele>841</ele>
						<time>2022-11-02T02:34:34Z</time>
					</trkpt>
					<trkpt lat="45.622250" lon="4.596630">
						<ele>840</ele>
						<time>2022-11-02T02:35:17Z</time>
					</trkpt>
					<trkpt lat="45.622170" lon="4.595870">
						<ele>845</ele>
						<time>2022-11-02T02:36:29Z</time>
					</trkpt>
					<trkpt lat="45.622010" lon="4.595260">
						<ele>849</ele>
						<time>2022-11-02T02:37:30Z</time>
					</trkpt>
					<trkpt lat="45.621890" lon="4.595030">
						<ele>852</ele>
						<time>2022-11-02T02:37:56Z</time>
					</trkpt>
					<trkpt lat="45.621760" lon="4.594840">
						<ele>854</ele>
						<time>2022-11-02T02:38:21Z</time>
					</trkpt>
					<trkpt lat="45.621380" lon="4.594460">
						<ele>860</ele>
						<time>2022-11-02T02:39:23Z</time>
					</trkpt>
					<trkpt lat="45.621010" lon="4.594010">
						<ele>863</ele>
						<time>2022-11-02T02:40:28Z</time>
					</trkpt>
					<trkpt lat="45.620690" lon="4.593690">
						<ele>864</ele>
						<time>2022-11-02T02:41:20Z</time>
					</trkpt>
					<trkpt lat="45.620440" lon="4.593500">
						<ele>865</ele>
						<time>2022-11-02T02:41:58Z</time>
					</trkpt>
					<trkpt lat="45.620170" lon="4.593380">
						<ele>867</ele>
						<time>2022-11-02T02:42:36Z</time>
					</trkpt>
					<trkpt lat="45.619950" lon="4.593320">
						<ele>868</ele>
						<time>2022-11-02T02:43:05Z</time>
					</trkpt>
					<trkpt lat="45.619850" lon="4.593320">
						<ele>867</ele>
						<time>2022-11-02T02:43:19Z</time>
					</trkpt>
					<trkpt lat="45.619370" lon="4.593520">
						<ele>866</ele>
						<time>2022-11-02T02:44:25Z</time>
					</trkpt>
					<trkpt lat="45.619240" lon="4.593540">
						<ele>865</ele>
						<time>2022-11-02T02:44:43Z</time>
					</trkpt>
					<trkpt lat="45.618920" lon="4.593480">
						<ele>862</ele>
						<time>2022-11-02T02:45:26Z</time>
					</trkpt>
					<trkpt lat="45.618290" lon="4.593590">
						<ele>858</ele>
						<time>2022-11-02T02:46:51Z</time>
					</trkpt>
					<trkpt lat="45.618090" lon="4.593590">
						<ele>858</ele>
						<time>2022-11-02T02:47:17Z</time>
					</trkpt>
					<trkpt lat="45.617500" lon="4.593520">
						<ele>857</ele>
						<time>2022-11-02T02:48:36Z</time>
					</trkpt>
					<trkpt lat="45.616800" lon="4.593360">
						<ele>858</ele>
						<time>2022-11-02T02:50:11Z</time>
					</trkpt>
					<trkpt lat="45.616100" lon="4.593310">
						<ele>857</ele>
						<time>2022-11-02T02:51:45Z</time>
					</trkpt>
					<trkpt lat="45.615360" lon="4.593180">
						<ele>853</ele>
						<time>2022-11-02T02:53:24Z</time>
					</trkpt>
					<trkpt lat="45.614490" lon="4.593100">
						<ele>846</ele>
						<time>2022-11-02T02:55:20Z</time>
					</trkpt>
					<trkpt lat="45.613850" lon="4.592950">
						<ele>842</ele>
						<time>2022-11-02T02:56:47Z</time>
					</trkpt>
					<trkpt lat="45.613570" lon="4.592820">
						<ele>840</ele>
						<time>2022-11-02T02:57:26Z</time>
					</trkpt>
					<trkpt lat="45.612630" lon="4.592470">
						<ele>831</ele>
						<time>2022-11-02T02:59:36Z</time>
					</trkpt>
					<trkpt lat="45.612400" lon="4.592480">
						<ele>827</ele>
						<time>2022-11-02T03:00:07Z</time>
					</trkpt>
					<trkpt lat="45.612350" lon="4.592460">
						<ele>826</ele>
						<time>2022-11-02T03:00:13Z</time>
					</trkpt>
					<trkpt lat="45.612240" lon="4.592370">
						<ele>824</ele>
						<time>2022-11-02T03:00:30Z</time>
					</trkpt>
					<trkpt lat="45.611320" lon="4.591290">
						<ele>806</ele>
						<time>2022-11-02T03:03:09Z</time>
					</trkpt>
					<trkpt lat="45.611240" lon="4.591220">
						<ele>804</ele>
						<time>2022-11-02T03:03:22Z</time>
					</trkpt>
					<trkpt lat="45.610870" lon="4.591020">
						<ele>796</ele>
						<time>2022-11-02T03:04:15Z</time>
					</trkpt>
					<trkpt lat="45.610730" lon="4.590900">
						<ele>794</ele>
						<time>2022-11-02T03:04:36Z</time>
					</trkpt>
					<trkpt lat="45.610560" lon="4.590700">
						<ele>792</ele>
						<time>2022-11-02T03:05:06Z</time>
					</trkpt>
					<trkpt lat="45.610410" lon="4.590590">
						<ele>790</ele>
						<time>2022-11-02T03:05:28Z</time>
					</trkpt>
					<trkpt lat="45.610230" lon="4.590530">
						<ele>788</ele>
						<time>2022-11-02T03:05:53Z</time>
					</trkpt>
					<trkpt lat="45.609610" lon="4.590420">
						<ele>780</ele>
						<time>2022-11-02T03:07:16Z</time>
					</trkpt>
					<trkpt lat="45.608940" lon="4.590250">
						<ele>773</ele>
						<time>2022-11-02T03:08:47Z</time>
					</trkpt>
					<trkpt lat="45.608720" lon="4.590250">
						<ele>771</ele>
						<time>2022-11-02T03:09:16Z</time>
					</trkpt>
					<trkpt lat="45.608530" lon="4.590330">
						<ele>768</ele>
						<time>2022-11-02T03:09:43Z</time>
					</trkpt>
					<trkpt lat="45.608410" lon="4.590140">
						<ele>767</ele>
						<time>2022-11-02T03:10:07Z</time>
					</trkpt>
					<trkpt lat="45.608290" lon="4.590030">
						<ele>766</ele>
						<time>2022-11-02T03:10:26Z</time>
					</trkpt>
					<trkpt lat="45.608130" lon="4.589960">
						<ele>766</ele>
						<time>2022-11-02T03:10:48Z</time>
					</trkpt>
					<trkpt lat="45.607870" lon="4.589920">
						<ele>765</ele>
						<time>2022-11-02T03:11:23Z</time>
					</trkpt>
					<trkpt lat="45.607700" lon="4.590000">
						<ele>764</ele>
						<time>2022-11-02T03:11:47Z</time>
					</trkpt>
					<trkpt lat="45.607480" lon="4.589990">
						<ele>763</ele>
						<time>2022-11-02T03:12:16Z</time>
					</trkpt>
					<trkpt lat="45.606330" lon="4.589730">
						<ele>764</ele>
						<time>2022-11-02T03:14:52Z</time>
					</trkpt>
					<trkpt lat="45.605460" lon="4.589340">
						<ele>760</ele>
						<time>2022-11-02T03:16:53Z</time>
					</trkpt>
					<trkpt lat="45.605310" lon="4.589350">
						<ele>759</ele>
						<time>2022-11-02T03:17:13Z</time>
					</trkpt>
					<trkpt lat="45.605090" lon="4.589280">
						<ele>757</ele>
						<time>2022-11-02T03:17:43Z</time>
					</trkpt>
					<trkpt lat="45.604990" lon="4.589280">
						<ele>756</ele>
						<time>2022-11-02T03:17:57Z</time>
					</trkpt>
					<trkpt lat="45.604480" lon="4.589420">
						<ele>750</ele>
						<time>2022-11-02T03:19:06Z</time>
					</trkpt>
					<trkpt lat="45.604130" lon="4.589450">
						<ele>746</ele>
						<time>2022-11-02T03:19:53Z</time>
					</trkpt>
					<trkpt lat="45.603960" lon="4.589570">
						<ele>743</ele>
						<time>2022-11-02T03:20:18Z</time>
					</trkpt>
					<trkpt lat="45.603860" lon="4.589600">
						<ele>741</ele>
						<time>2022-11-02T03:20:32Z</time>
					</trkpt>
					<trkpt lat="45.603420" lon="4.589580">
						<ele>735</ele>
						<time>2022-11-02T03:21:30Z</time>
					</trkpt>
					<trkpt lat="45.603050" lon="4.589500">
						<ele>730</ele>
						<time>2022-11-02T03:22:20Z</time>
					</trkpt>
					<trkpt lat="45.602800" lon="4.589390">
						<ele>726</ele>
						<time>2022-11-02T03:22:55Z</time>
					</trkpt>
					<trkpt lat="45.602510" lon="4.589310">
						<ele>721</ele>
						<time>2022-11-02T03:23:35Z</time>
					</trkpt>
					<trkpt lat="45.602420" lon="4.589330">
						<ele>720</ele>
						<time>2022-11-02T03:23:47Z</time>
					</trkpt>
					<trkpt lat="45.602100" lon="4.589080">
						<ele>717</ele>
						<time>2022-11-02T03:24:36Z</time>
					</trkpt>
					<trkpt lat="45.601340" lon="4.589010">
						<ele>712</ele>
						<time>2022-11-02T03:26:17Z</time>
					</trkpt>
					<trkpt lat="45.601300" lon="4.589250">
						<ele>712</ele>
						<time>2022-11-02T03:26:40Z</time>
					</trkpt>
					<trkpt lat="45.601060" lon="4.589220">
						<ele>712</ele>
						<time>2022-11-02T03:27:12Z</time>
					</trkpt>
					<trkpt lat="45.600340" lon="4.589060">
						<ele>716</ele>
						<time>2022-11-02T03:28:50Z</time>
					</trkpt>
					<trkpt lat="45.600250" lon="4.589000">
						<ele>717</ele>
						<time>2022-11-02T03:29:03Z</time>
					</trkpt>
					<trkpt lat="45.599970" lon="4.589050">
						<ele>719</ele>
						<time>2022-11-02T03:29:41Z</time>
					</trkpt>
					<trkpt lat="45.599840" lon="4.589200">
						<ele>719</ele>
						<time>2022-11-02T03:30:03Z</time>
					</trkpt>
					<trkpt lat="45.599690" lon="4.589110">
						<ele>720</ele>
						<time>2022-11-02T03:30:25Z</time>
					</trkpt>
					<trkpt lat="45.599680" lon="4.589150">
						<ele>720</ele>
						<time>2022-11-02T03:30:29Z</time>
					</trkpt>
					<trkpt lat="45.599360" lon="4.589470">
						<ele>718</ele>
						<time>2022-11-02T03:31:21Z</time>
					</trkpt>
					<trkpt lat="45.599200" lon="4.589540">
						<ele>717</ele>
						<time>2022-11-02T03:31:43Z</time>
					</trkpt>
					<trkpt lat="45.599070" lon="4.589520">
						<ele>716</ele>
						<time>2022-11-02T03:32:00Z</time>
					</trkpt>
					<trkpt lat="45.598930" lon="4.589450">
						<ele>715</ele>
						<time>2022-11-02T03:32:20Z</time>
					</trkpt>
					<trkpt lat="45.598350" lon="4.588880">
						<ele>716</ele>
						<time>2022-11-02T03:33:54Z</time>
					</trkpt>
					<trkpt lat="45.598090" lon="4.588500">
						<ele>716</ele>
						<time>2022-11-02T03:34:44Z</time>
					</trkpt>
					<trkpt lat="45.598000" lon="4.588080">
						<ele>714</ele>
						<time>2022-11-02T03:35:25Z</time>
					</trkpt>
					<trkpt lat="45.598190" lon="4.588140">
						<ele>720</ele>
						<time>2022-11-02T03:35:51Z</time>
					</trkpt>
					<trkpt lat="45.598180" lon="4.587680">
						<ele>718</ele>
						<time>2022-11-02T03:36:34Z</time>
					</trkpt>
					<trkpt lat="45.598200" lon="4.587590">
						<ele>719</ele>
						<time>2022-11-02T03:36:43Z</time>
					</trkpt>
					<trkpt lat="45.598240" lon="4.587560">
						<ele>720</ele>
						<time>2022-11-02T03:36:49Z</time>
					</trkpt>
					<trkpt lat="45.598290" lon="4.587570">
						<ele>722</ele>
						<time>2022-11-02T03:36:55Z</time>
					</trkpt>
					<trkpt lat="45.598330" lon="4.587610">
						<ele>723</ele>
						<time>2022-11-02T03:37:02Z</time>
					</trkpt>
					<trkpt lat="45.598360" lon="4.587800">
						<ele>724</ele>
						<time>2022-11-02T03:37:20Z</time>
					</trkpt>
					<trkpt lat="45.598440" lon="4.588030">
						<ele>725</ele>
						<time>2022-11-02T03:37:44Z</time>
					</trkpt>
					<trkpt lat="45.598520" lon="4.588160">
						<ele>725</ele>
						<time>2022-11-02T03:38:00Z</time>
					</trkpt>
					<trkpt lat="45.598640" lon="4.588230">
						<ele>726</ele>
						<time>2022-11-02T03:38:17Z</time>
					</trkpt>
					<trkpt lat="45.599070" lon="4.588600">
						<ele>727</ele>
						<time>2022-11-02T03:39:24Z</time>
					</trkpt>
					<trkpt lat="45.599250" lon="4.587990">
						<ele>725</ele>
						<time>2022-11-02T03:40:26Z</time>
					</trkpt>
					<trkpt lat="45.599450" lon="4.587640">
						<ele>719</ele>
						<time>2022-11-02T03:41:08Z</time>
					</trkpt>
					<trkpt lat="45.599610" lon="4.587990">
						<ele>721</ele>
						<time>2022-11-02T03:41:47Z</time>
					</trkpt>
					<trkpt lat="45.599650" lon="4.588220">
						<ele>723</ele>
						<time>2022-11-02T03:42:10Z</time>
					</trkpt>
					<trkpt lat="45.599650" lon="4.588500">
						<ele>723</ele>
						<time>2022-11-02T03:42:36Z</time>
					</trkpt>
					<trkpt lat="45.599770" lon="4.588510">
						<ele>722</ele>
						<time>2022-11-02T03:42:52Z</time>
					</trkpt>
					<trkpt lat="45.599770" lon="4.588440">
						<ele>722</ele>
						<time>2022-11-02T03:42:58Z</time>
					</trkpt>
					<trkpt lat="45.599860" lon="4.588560">
						<ele>721</ele>
						<time>2022-11-02T03:43:15Z</time>
					</trkpt>
					<trkpt lat="45.599910" lon="4.588590">
						<ele>720</ele>
						<time>2022-11-02T03:43:22Z</time>
					</trkpt>
					<trkpt lat="45.599980" lon="4.588590">
						<ele>720</ele>
						<time>2022-11-02T03:43:31Z</time>
					</trkpt>
					<trkpt lat="45.599980" lon="4.588440">
						<ele>720</ele>
						<time>2022-11-02T03:43:45Z</time>
					</trkpt>
					<trkpt lat="45.600160" lon="4.588520">
						<ele>718</ele>
						<time>2022-11-02T03:44:10Z</time>
					</trkpt>
					<trkpt lat="45.600300" lon="4.588540">
						<ele>717</ele>
						<time>2022-11-02T03:44:29Z</time>
					</trkpt>
					<trkpt lat="45.600730" lon="4.588740">
						<ele>713</ele>
						<time>2022-11-02T03:45:30Z</time>
					</trkpt>
					<trkpt lat="45.600790" lon="4.588090">
						<ele>709</ele>
						<time>2022-11-02T03:46:31Z</time>
					</trkpt>
					<trkpt lat="45.600900" lon="4.587520">
						<ele>704</ele>
						<time>2022-11-02T03:47:26Z</time>
					</trkpt>
					<trkpt lat="45.601370" lon="4.587710">
						<ele>707</ele>
						<time>2022-11-02T03:48:31Z</time>
					</trkpt>
					<trkpt lat="45.601590" lon="4.587940">
						<ele>709</ele>
						<time>2022-11-02T03:49:08Z</time>
					</trkpt>
					<trkpt lat="45.601760" lon="4.587520">
						<ele>708</ele>
						<time>2022-11-02T03:49:53Z</time>
					</trkpt>
					<trkpt lat="45.601860" lon="4.586570">
						<ele>705</ele>
						<time>2022-11-02T03:51:23Z</time>
					</trkpt>
					<trkpt lat="45.601820" lon="4.585740">
						<ele>706</ele>
						<time>2022-11-02T03:52:40Z</time>
					</trkpt>
					<trkpt lat="45.601780" lon="4.585500">
						<ele>708</ele>
						<time>2022-11-02T03:53:03Z</time>
					</trkpt>
					<trkpt lat="45.601670" lon="4.585310">
						<ele>707</ele>
						<time>2022-11-02T03:53:26Z</time>
					</trkpt>
					<trkpt lat="45.601590" lon="4.585250">
						<ele>706</ele>
						<time>2022-11-02T03:53:38Z</time>
					</trkpt>
					<trkpt lat="45.601200" lon="4.583600">
						<ele>709</ele>
						<time>2022-11-02T03:56:21Z</time>
					</trkpt>
					<trkpt lat="45.601150" lon="4.583170">
						<ele>710</ele>
						<time>2022-11-02T03:57:02Z</time>
					</trkpt>
					<trkpt lat="45.601210" lon="4.583010">
						<ele>714</ele>
						<time>2022-11-02T03:57:19Z</time>
					</trkpt>
					<trkpt lat="45.601320" lon="4.582410">
						<ele>721</ele>
						<time>2022-11-02T03:58:17Z</time>
					</trkpt>
					<trkpt lat="45.601460" lon="4.581410">
						<ele>726</ele>
						<time>2022-11-02T03:59:52Z</time>
					</trkpt>
					<trkpt lat="45.601510" lon="4.581200">
						<ele>728</ele>
						<time>2022-11-02T04:00:12Z</time>
					</trkpt>
					<trkpt lat="45.601570" lon="4.580610">
						<ele>732</ele>
						<time>2022-11-02T04:01:08Z</time>
					</trkpt>
					<trkpt lat="45.601630" lon="4.580350">
						<ele>736</ele>
						<time>2022-11-02T04:01:34Z</time>
					</trkpt>
					<trkpt lat="45.601690" lon="4.580150">
						<ele>739</ele>
						<time>2022-11-02T04:01:54Z</time>
					</trkpt>
					<trkpt lat="45.601800" lon="4.579950">
						<ele>742</ele>
						<time>2022-11-02T04:02:18Z</time>
					</trkpt>
					<trkpt lat="45.602000" lon="4.579900">
						<ele>744</ele>
						<time>2022-11-02T04:02:45Z</time>
					</trkpt>
					<trkpt lat="45.602060" lon="4.579840">
						<ele>745</ele>
						<time>2022-11-02T04:02:55Z</time>
					</trkpt>
					<trkpt lat="45.602270" lon="4.579440">
						<ele>747</ele>
						<time>2022-11-02T04:03:41Z</time>
					</trkpt>
					<trkpt lat="45.602340" lon="4.579170">
						<ele>748</ele>
						<time>2022-11-02T04:04:08Z</time>
					</trkpt>
					<trkpt lat="45.602460" lon="4.578390">
						<ele>750</ele>
						<time>2022-11-02T04:05:23Z</time>
					</trkpt>
					<trkpt lat="45.602460" lon="4.578120">
						<ele>751</ele>
						<time>2022-11-02T04:05:48Z</time>
					</trkpt>
					<trkpt lat="45.602420" lon="4.577890">
						<ele>750</ele>
						<time>2022-11-02T04:06:10Z</time>
					</trkpt>
					<trkpt lat="45.602530" lon="4.577360">
						<ele>756</ele>
						<time>2022-11-02T04:07:02Z</time>
					</trkpt>
					<trkpt lat="45.602470" lon="4.576360">
						<ele>756</ele>
						<time>2022-11-02T04:08:35Z</time>
					</trkpt>
					<trkpt lat="45.601990" lon="4.575940">
						<ele>746</ele>
						<time>2022-11-02T04:09:50Z</time>
					</trkpt>
					<trkpt lat="45.601530" lon="4.575220">
						<ele>743</ele>
						<time>2022-11-02T04:11:22Z</time>
					</trkpt>
					<trkpt lat="45.601290" lon="4.574680">
						<ele>740</ele>
						<time>2022-11-02T04:12:21Z</time>
					</trkpt>
					<trkpt lat="45.601070" lon="4.573990">
						<ele>733</ele>
						<time>2022-11-02T04:13:32Z</time>
					</trkpt>
					<trkpt lat="45.600820" lon="4.573480">
						<ele>724</ele>
						<time>2022-11-02T04:14:30Z</time>
					</trkpt>
					<trkpt lat="45.600650" lon="4.573010">
						<ele>720</ele>
						<time>2022-11-02T04:15:20Z</time>
					</trkpt>
					<trkpt lat="45.600530" lon="4.572190">
						<ele>719</ele>
						<time>2022-11-02T04:16:38Z</time>
					</trkpt>
					<trkpt lat="45.600440" lon="4.571890">
						<ele>716</ele>
						<time>2022-11-02T04:17:08Z</time>
					</trkpt>
					<trkpt lat="45.600290" lon="4.571500">
						<ele>712</ele>
						<time>2022-11-02T04:17:50Z</time>
					</trkpt>
					<trkpt lat="45.599880" lon="4.570590">
						<ele>704</ele>
						<time>2022-11-02T04:19:31Z</time>
					</trkpt>
					<trkpt lat="45.599790" lon="4.570520">
						<ele>703</ele>
						<time>2022-11-02T04:19:45Z</time>
					</trkpt>
					<trkpt lat="45.599700" lon="4.570540">
						<ele>702</ele>
						<time>2022-11-02T04:19:57Z</time>
					</trkpt>
					<trkpt lat="45.599630" lon="4.570590">
						<ele>701</ele>
						<time>2022-11-02T04:20:07Z</time>
					</trkpt>
					<trkpt lat="45.599520" lon="4.570360">
						<ele>701</ele>
						<time>2022-11-02T04:20:33Z</time>
					</trkpt>
					<trkpt lat="45.599480" lon="4.570220">
						<ele>701</ele>
						<time>2022-11-02T04:20:47Z</time>
					</trkpt>
					<trkpt lat="45.599320" lon="4.570330">
						<ele>700</ele>
						<time>2022-11-02T04:21:11Z</time>
					</trkpt>
					<trkpt lat="45.599130" lon="4.570580">
						<ele>697</ele>
						<time>2022-11-02T04:21:45Z</time>
					</trkpt>
					<trkpt lat="45.599040" lon="4.570660">
						<ele>697</ele>
						<time>2022-11-02T04:22:00Z</time>
					</trkpt>
					<trkpt lat="45.598830" lon="4.570790">
						<ele>696</ele>
						<time>2022-11-02T04:22:30Z</time>
					</trkpt>
					<trkpt lat="45.598550" lon="4.570800">
						<ele>695</ele>
						<time>2022-11-02T04:23:08Z</time>
					</trkpt>
					<trkpt lat="45.598340" lon="4.570900">
						<ele>694</ele>
						<time>2022-11-02T04:23:37Z</time>
					</trkpt>
					<trkpt lat="45.597970" lon="4.571150">
						<ele>692</ele>
						<time>2022-11-02T04:24:32Z</time>
					</trkpt>
					<trkpt lat="45.597930" lon="4.571200">
						<ele>691</ele>
						<time>2022-11-02T04:24:39Z</time>
					</trkpt>
					<trkpt lat="45.597570" lon="4.571140">
						<ele>692</ele>
						<time>2022-11-02T04:25:27Z</time>
					</trkpt>
					<trkpt lat="45.597220" lon="4.571050">
						<ele>693</ele>
						<time>2022-11-02T04:26:15Z</time>
					</trkpt>
					<trkpt lat="45.596820" lon="4.571000">
						<ele>694</ele>
						<time>2022-11-02T04:27:08Z</time>
					</trkpt>
					<trkpt lat="45.596360" lon="4.571040">
						<ele>695</ele>
						<time>2022-11-02T04:28:10Z</time>
					</trkpt>
					<trkpt lat="45.595870" lon="4.571020">
						<ele>697</ele>
						<time>2022-11-02T04:29:15Z</time>
					</trkpt>
					<trkpt lat="45.595570" lon="4.570980">
						<ele>699</ele>
						<time>2022-11-02T04:29:55Z</time>
					</trkpt>
					<trkpt lat="45.595120" lon="4.570880">
						<ele>703</ele>
						<time>2022-11-02T04:30:56Z</time>
					</trkpt>
					<trkpt lat="45.594820" lon="4.570780">
						<ele>708</ele>
						<time>2022-11-02T04:31:37Z</time>
					</trkpt>
					<trkpt lat="45.594790" lon="4.570820">
						<ele>708</ele>
						<time>2022-11-02T04:31:43Z</time>
					</trkpt>
					<trkpt lat="45.594630" lon="4.570900">
						<ele>711</ele>
						<time>2022-11-02T04:32:05Z</time>
					</trkpt>
					<trkpt lat="45.594450" lon="4.571080">
						<ele>713</ele>
						<time>2022-11-02T04:32:35Z</time>
					</trkpt>
					<trkpt lat="45.594210" lon="4.571140">
						<ele>717</ele>
						<time>2022-11-02T04:33:07Z</time>
					</trkpt>
					<trkpt lat="45.594130" lon="4.571020">
						<ele>720</ele>
						<time>2022-11-02T04:33:23Z</time>
					</trkpt>
					<trkpt lat="45.594100" lon="4.570690">
						<ele>721</ele>
						<time>2022-11-02T04:33:54Z</time>
					</trkpt>
					<trkpt lat="45.594030" lon="4.570510">
						<ele>722</ele>
						<time>2022-11-02T04:34:13Z</time>
					</trkpt>
					<trkpt lat="45.593580" lon="4.570010">
						<ele>726</ele>
						<time>2022-11-02T04:35:29Z</time>
					</trkpt>
					<trkpt lat="45.593200" lon="4.570960">
						<ele>735</ele>
						<time>2022-11-02T04:37:11Z</time>
					</trkpt>
					<trkpt lat="45.593120" lon="4.571240">
						<ele>736</ele>
						<time>2022-11-02T04:37:39Z</time>
					</trkpt>
					<trkpt lat="45.592950" lon="4.571580">
						<ele>739</ele>
						<time>2022-11-02T04:38:18Z</time>
					</trkpt>
					<trkpt lat="45.592820" lon="4.571640">
						<ele>741</ele>
						<time>2022-11-02T04:38:37Z</time>
					</trkpt>
					<trkpt lat="45.592680" lon="4.571650">
						<ele>744</ele>
						<time>2022-11-02T04:38:55Z</time>
					</trkpt>
					<trkpt lat="45.591800" lon="4.572110">
						<ele>755</ele>
						<time>2022-11-02T04:41:00Z</time>
					</trkpt>
					<trkpt lat="45.591440" lon="4.571660">
						<ele>756</ele>
						<time>2022-11-02T04:42:04Z</time>
					</trkpt>
					<trkpt lat="45.591280" lon="4.571630">
						<ele>759</ele>
						<time>2022-11-02T04:42:26Z</time>
					</trkpt>
					<trkpt lat="45.590760" lon="4.572080">
						<ele>770</ele>
						<time>2022-11-02T04:43:47Z</time>
					</trkpt>
					<trkpt lat="45.590480" lon="4.572210">
						<ele>774</ele>
						<time>2022-11-02T04:44:26Z</time>
					</trkpt>
					<trkpt lat="45.590090" lon="4.572470">
						<ele>779</ele>
						<time>2022-11-02T04:45:24Z</time>
					</trkpt>
					<trkpt lat="45.589830" lon="4.572550">
						<ele>783</ele>
						<time>2022-11-02T04:45:59Z</time>
					</trkpt>
					<trkpt lat="45.589680" lon="4.572650">
						<ele>786</ele>
						<time>2022-11-02T04:46:21Z</time>
					</trkpt>
					<trkpt lat="45.589630" lon="4.572710">
						<ele>787</ele>
						<time>2022-11-02T04:46:30Z</time>
					</trkpt>
					<trkpt lat="45.589500" lon="4.572760">
						<ele>789</ele>
						<time>2022-11-02T04:46:48Z</time>
					</trkpt>
					<trkpt lat="45.589190" lon="4.572700">
						<ele>793</ele>
						<time>2022-11-02T04:47:30Z</time>
					</trkpt>
					<trkpt lat="45.588770" lon="4.572740">
						<ele>799</ele>
						<time>2022-11-02T04:48:26Z</time>
					</trkpt>
					<trkpt lat="45.588660" lon="4.572730">
						<ele>800</ele>
						<time>2022-11-02T04:48:40Z</time>
					</trkpt>
					<trkpt lat="45.588330" lon="4.572630">
						<ele>805</ele>
						<time>2022-11-02T04:49:25Z</time>
					</trkpt>
					<trkpt lat="45.587880" lon="4.572760">
						<ele>809</ele>
						<time>2022-11-02T04:50:27Z</time>
					</trkpt>
					<trkpt lat="45.587630" lon="4.572610">
						<ele>812</ele>
						<time>2022-11-02T04:51:03Z</time>
					</trkpt>
					<trkpt lat="45.587230" lon="4.572460">
						<ele>813</ele>
						<time>2022-11-02T04:51:58Z</time>
					</trkpt>
					<trkpt lat="45.587030" lon="4.572320">
						<ele>813</ele>
						<time>2022-11-02T04:52:28Z</time>
					</trkpt>
					<trkpt lat="45.586560" lon="4.571760">
						<ele>815</ele>
						<time>2022-11-02T04:53:49Z</time>
					</trkpt>
					<trkpt lat="45.586270" lon="4.571310">
						<ele>816</ele>
						<time>2022-11-02T04:54:47Z</time>
					</trkpt>
					<trkpt lat="45.585810" lon="4.570300">
						<ele>818</ele>
						<time>2022-11-02T04:56:39Z</time>
					</trkpt>
					<trkpt lat="45.585610" lon="4.569950">
						<ele>816</ele>
						<time>2022-11-02T04:57:21Z</time>
					</trkpt>
					<trkpt lat="45.585330" lon="4.569790">
						<ele>811</ele>
						<time>2022-11-02T04:58:02Z</time>
					</trkpt>
					<trkpt lat="45.584970" lon="4.569490">
						<ele>806</ele>
						<time>2022-11-02T04:58:57Z</time>
					</trkpt>
					<trkpt lat="45.584830" lon="4.569330">
						<ele>805</ele>
						<time>2022-11-02T04:59:21Z</time>
					</trkpt>
					<trkpt lat="45.584740" lon="4.569290">
						<ele>804</ele>
						<time>2022-11-02T04:59:34Z</time>
					</trkpt>
					<trkpt lat="45.584620" lon="4.569310">
						<ele>803</ele>
						<time>2022-11-02T04:59:50Z</time>
					</trkpt>
					<trkpt lat="45.584530" lon="4.569280">
						<ele>802</ele>
						<time>2022-11-02T05:00:02Z</time>
					</trkpt>
					<trkpt lat="45.584360" lon="4.569010">
						<ele>801</ele>
						<time>2022-11-02T05:00:36Z</time>
					</trkpt>
					<trkpt lat="45.583960" lon="4.568660">
						<ele>797</ele>
						<time>2022-11-02T05:01:39Z</time>
					</trkpt>
					<trkpt lat="45.583710" lon="4.568530">
						<ele>795</ele>
						<time>2022-11-02T05:02:14Z</time>
					</trkpt>
					<trkpt lat="45.583640" lon="4.568410">
						<ele>795</ele>
						<time>2022-11-02T05:02:29Z</time>
					</trkpt>
					<trkpt lat="45.583610" lon="4.568090">
						<ele>797</ele>
						<time>2022-11-02T05:02:59Z</time>
					</trkpt>
					<trkpt lat="45.583700" lon="4.567810">
						<ele>799</ele>
						<time>2022-11-02T05:03:28Z</time>
					</trkpt>
					<trkpt lat="45.583710" lon="4.567580">
						<ele>801</ele>
						<time>2022-11-02T05:03:49Z</time>
					</trkpt>
					<trkpt lat="45.583480" lon="4.566930">
						<ele>808</ele>
						<time>2022-11-02T05:04:57Z</time>
					</trkpt>
					<trkpt lat="45.583250" lon="4.566710">
						<ele>811</ele>
						<time>2022-11-02T05:05:34Z</time>
					</trkpt>
					<trkpt lat="45.582890" lon="4.566220">
						<ele>812</ele>
						<time>2022-11-02T05:06:41Z</time>
					</trkpt>
					<trkpt lat="45.582290" lon="4.565190">
						<ele>821</ele>
						<time>2022-11-02T05:08:46Z</time>
					</trkpt>
					<trkpt lat="45.582100" lon="4.564710">
						<ele>822</ele>
						<time>2022-11-02T05:09:37Z</time>
					</trkpt>
					<trkpt lat="45.581850" lon="4.564490">
						<ele>824</ele>
						<time>2022-11-02T05:10:16Z</time>
					</trkpt>
					<trkpt lat="45.581610" lon="4.564010">
						<ele>827</ele>
						<time>2022-11-02T05:11:11Z</time>
					</trkpt>
					<trkpt lat="45.581550" lon="4.563970">
						<ele>827</ele>
						<time>2022-11-02T05:11:20Z</time>
					</trkpt>
					<trkpt lat="45.581380" lon="4.563990">
						<ele>827</ele>
						<time>2022-11-02T05:11:43Z</time>
					</trkpt>
					<trkpt lat="45.581270" lon="4.563890">
						<ele>827</ele>
						<time>2022-11-02T05:12:00Z</time>
					</trkpt>
					<trkpt lat="45.580940" lon="4.562980">
						<ele>830</ele>
						<time>2022-11-02T05:13:36Z</time>
					</trkpt>
					<trkpt lat="45.580480" lon="4.561990">
						<ele>826</ele>
						<time>2022-11-02T05:15:27Z</time>
					</trkpt>
					<trkpt lat="45.580450" lon="4.561870">
						<ele>826</ele>
						<time>2022-11-02T05:15:39Z</time>
					</trkpt>
					<trkpt lat="45.580370" lon="4.561370">
						<ele>823</ele>
						<time>2022-11-02T05:16:27Z</time>
					</trkpt>
					<trkpt lat="45.580350" lon="4.560810">
						<ele>821</ele>
						<time>2022-11-02T05:17:19Z</time>
					</trkpt>
					<trkpt lat="45.580410" lon="4.560670">
						<ele>820</ele>
						<time>2022-11-02T05:17:35Z</time>
					</trkpt>
					<trkpt lat="45.580350" lon="4.560270">
						<ele>819</ele>
						<time>2022-11-02T05:18:13Z</time>
					</trkpt>
					<trkpt lat="45.580200" lon="4.559830">
						<ele>819</ele>
						<time>2022-11-02T05:18:59Z</time>
					</trkpt>
					<trkpt lat="45.580110" lon="4.559440">
						<ele>818</ele>
						<time>2022-11-02T05:19:37Z</time>
					</trkpt>
					<trkpt lat="45.580020" lon="4.559190">
						<ele>818</ele>
						<time>2022-11-02T05:20:03Z</time>
					</trkpt>
					<trkpt lat="45.579860" lon="4.558590">
						<ele>812</ele>
						<time>2022-11-02T05:21:03Z</time>
					</trkpt>
					<trkpt lat="45.579830" lon="4.558130">
						<ele>810</ele>
						<time>2022-11-02T05:21:46Z</time>
					</trkpt>
					<trkpt lat="45.579730" lon="4.557690">
						<ele>807</ele>
						<time>2022-11-02T05:22:30Z</time>
					</trkpt>
					<trkpt lat="45.579670" lon="4.557530">
						<ele>807</ele>
						<time>2022-11-02T05:22:47Z</time>
					</trkpt>
					<trkpt lat="45.579540" lon="4.556890">
						<ele>805</ele>
						<time>2022-11-02T05:23:49Z</time>
					</trkpt>
					<trkpt lat="45.579200" lon="4.555790">
						<ele>804</ele>
						<time>2022-11-02T05:25:41Z</time>
					</trkpt>
					<trkpt lat="45.579140" lon="4.555250">
						<ele>806</ele>
						<time>2022-11-02T05:26:32Z</time>
					</trkpt>
					<trkpt lat="45.579060" lon="4.555030">
						<ele>806</ele>
						<time>2022-11-02T05:26:55Z</time>
					</trkpt>
					<trkpt lat="45.579020" lon="4.554580">
						<ele>806</ele>
						<time>2022-11-02T05:27:38Z</time>
					</trkpt>
					<trkpt lat="45.578950" lon="4.554390">
						<ele>805</ele>
						<time>2022-11-02T05:27:58Z</time>
					</trkpt>
					<trkpt lat="45.578710" lon="4.554000">
						<ele>804</ele>
						<time>2022-11-02T05:28:46Z</time>
					</trkpt>
					<trkpt lat="45.578590" lon="4.553560">
						<ele>807</ele>
						<time>2022-11-02T05:29:30Z</time>
					</trkpt>
					<trkpt lat="45.578500" lon="4.552930">
						<ele>810</ele>
						<time>2022-11-02T05:30:30Z</time>
					</trkpt>
					<trkpt lat="45.578460" lon="4.552420">
						<ele>813</ele>
						<time>2022-11-02T05:31:18Z</time>
					</trkpt>
					</trkseg>
				</trk>
			</gpx>